Latitude: N 50° 09' 49" Longitude: W 05° 11' 53" Elevation: 168m ASL

There are 5 visitors online

Adverts

<- Previous Day | Today | Next Day ->

All Data for 16 May 2018

Time
A - D
Temp
A - D
Dew Point
A - D
Humidity
A - D
Pressure
A - D
Wind
A - D
Wind Dir Gust
A - D
Rain Rate
A - D
Rain Total
00:02 11.9 11.8 99 1023.4 8.3 W 12.1 0.0 0.0
00:26 11.8 11.7 99 1023.4 9.2 N 13.0 0.0 0.0
00:04 11.9 11.8 99 1023.5 6.9 N 11.4 0.0 0.0
00:07 11.9 11.8 99 1023.5 10.7 N 12.1 0.0 0.0
00:10 11.9 11.8 99 1023.5 9.2 N 13.0 0.0 0.0
00:12 11.9 11.8 99 1023.5 8.3 NW 13.0 0.0 0.0
00:19 11.9 11.8 99 1023.5 13.0 NE 13.0 0.0 0.0
00:28 11.8 11.7 99 1023.5 8.3 NE 13.0 0.0 0.0
00:48 11.8 11.7 99 1023.5 13.6 N 15.2 0.0 0.0
01:09 11.8 11.7 99 1023.5 7.6 NW 13.0 0.0 0.0
01:15 11.7 11.6 99 1023.5 7.6 NE 16.8 0.0 0.0
01:33 11.6 11.5 99 1023.5 13.0 N 13.0 0.0 0.0
00:15 11.9 11.8 99 1023.6 9.2 NW 13.0 0.0 0.0
00:17 11.9 11.8 99 1023.6 9.8 NW 13.0 0.0 0.0
00:22 11.9 11.8 99 1023.6 3.8 N 13.0 0.0 0.0
00:24 11.8 11.7 99 1023.6 9.2 N 13.0 0.0 0.0
00:31 11.8 11.7 99 1023.6 11.4 N 13.6 0.0 0.0
00:33 11.8 11.7 99 1023.6 9.8 NE 13.6 0.0 0.0
00:35 11.8 11.7 99 1023.6 9.2 NW 13.6 0.0 0.0
00:43 11.8 11.7 99 1023.6 7.6 N 13.0 0.0 0.0
00:51 11.8 11.7 99 1023.6 9.8 N 15.2 0.0 0.0
00:56 11.8 11.7 99 1023.6 6.9 N 13.6 0.0 0.0
00:57 11.8 11.7 99 1023.6 8.3 NW 13.6 0.0 0.0
01:00 11.8 11.7 99 1023.6 10.7 NW 11.4 0.0 0.0
01:04 11.8 11.7 99 1023.6 10.7 NW 10.7 0.0 0.0
01:05 11.8 11.7 99 1023.6 10.7 NW 10.7 0.0 0.0
01:06 11.8 11.7 99 1023.6 9.8 NE 10.7 0.0 0.0
01:08 11.8 11.7 99 1023.6 7.6 N 13.0 0.0 0.0
01:10 11.7 11.6 99 1023.6 6.9 NW 13.0 0.0 0.0
01:11 11.7 11.6 99 1023.6 16.8 NW 16.8 0.0 0.0
01:12 11.7 11.6 99 1023.6 9.2 N 16.8 0.0 0.0
01:19 11.7 11.6 99 1023.6 5.4 NW 16.8 0.0 0.0
01:21 11.7 11.6 99 1023.6 12.1 NW 16.8 0.0 0.0
01:23 11.7 11.6 99 1023.6 9.8 NE 12.1 0.0 0.0
01:25 11.7 11.6 99 1023.6 9.8 N 12.1 0.0 0.0
01:27 11.7 11.6 99 1023.6 7.6 NW 12.1 0.0 0.0
01:28 11.7 11.6 99 1023.6 11.4 NW 12.1 0.0 0.0
01:40 11.6 11.5 99 1023.6 10.7 N 14.5 0.0 0.0
01:45 11.6 11.5 99 1023.6 10.7 NW 15.9 0.0 0.0
01:56 11.4 11.3 99 1023.6 9.8 N 12.1 0.0 0.0
02:04 11.4 11.3 99 1023.6 9.8 NW 14.5 0.0 0.0
02:10 11.3 11.2 99 1023.6 9.8 NE 10.7 0.0 0.0
02:18 11.1 11.0 99 1023.6 9.2 N 13.0 0.0 0.0
02:39 10.8 10.7 99 1023.6 7.6 N 15.2 0.0 0.0
00:38 11.8 11.7 99 1023.7 8.3 NE 13.6 0.0 0.0
00:40 11.8 11.7 99 1023.7 10.7 N 13.0 0.0 0.0
00:41 11.8 11.7 99 1023.7 6.0 NW 13.0 0.0 0.0
00:46 11.8 11.7 99 1023.7 6.0 N 15.2 0.0 0.0
00:49 11.8 11.7 99 1023.7 9.8 N 15.2 0.0 0.0
00:52 11.8 11.7 99 1023.7 10.7 SW 15.2 0.0 0.0
00:54 11.8 11.7 99 1023.7 9.8 NW 15.2 0.0 0.0
00:58 11.8 11.7 99 1023.7 7.6 N 13.6 0.0 0.0
01:01 11.8 11.7 99 1023.7 10.7 NW 11.4 0.0 0.0
01:03 11.8 11.7 99 1023.7 10.7 NW 10.7 0.0 0.0
01:13 11.7 11.6 99 1023.7 8.3 N 16.8 0.0 0.0
01:16 11.7 11.6 99 1023.7 9.2 N 16.8 0.0 0.0
01:17 11.7 11.6 99 1023.7 10.7 NE 16.8 0.0 0.0
01:18 11.7 11.6 99 1023.7 9.8 NW 16.8 0.0 0.0
01:24 11.7 11.6 99 1023.7 11.4 N 12.1 0.0 0.0
01:29 11.7 11.6 99 1023.7 7.6 NW 12.1 0.0 0.0
01:30 11.7 11.6 99 1023.7 11.4 NW 12.1 0.0 0.0
01:31 11.7 11.6 99 1023.7 8.3 N 11.4 0.0 0.0
01:35 11.6 11.5 99 1023.7 7.6 NW 13.0 0.0 0.0
01:38 11.6 11.5 99 1023.7 10.7 N 13.0 0.0 0.0
01:39 11.6 11.5 99 1023.7 9.2 NW 13.0 0.0 0.0
01:48 11.5 11.4 99 1023.7 12.1 N 15.9 0.0 0.0
01:50 11.5 11.4 99 1023.7 9.2 NW 15.9 0.0 0.0
01:51 11.5 11.4 99 1023.7 11.4 NE 13.0 0.0 0.0
01:52 11.5 11.4 99 1023.7 9.2 NW 13.0 0.0 0.0
01:58 11.4 11.3 99 1023.7 10.7 N 14.5 0.0 0.0
02:01 11.4 11.3 99 1023.7 9.8 NW 14.5 0.0 0.0
02:03 11.4 11.3 99 1023.7 9.8 NW 14.5 0.0 0.0
02:05 11.4 11.3 99 1023.7 9.8 NW 14.5 0.0 0.0
02:07 11.3 11.2 99 1023.7 9.2 NW 12.1 0.0 0.0
02:09 11.3 11.2 99 1023.7 10.7 NE 12.1 0.0 0.0
02:11 11.3 11.2 99 1023.7 7.6 NW 10.7 0.0 0.0
02:14 11.2 11.1 99 1023.7 9.8 WSW 12.1 0.0 0.0
02:20 11.1 11.0 99 1023.7 11.4 N 15.2 0.0 0.0
02:21 11.1 11.0 99 1023.7 9.8 NE 15.2 0.0 0.0
02:22 11.1 11.0 99 1023.7 7.6 NE 15.2 0.0 0.0
02:25 11.0 10.9 99 1023.7 11.4 NW 15.2 0.0 0.0
02:30 11.0 10.9 99 1023.7 15.2 N 15.9 0.0 0.0
02:40 10.8 10.7 99 1023.7 12.1 N 15.2 0.0 0.0
02:42 10.8 10.7 99 1023.7 11.4 NW 15.2 0.0 0.0
02:44 10.8 10.7 99 1023.7 11.4 N 15.2 0.0 0.0
02:49 10.7 10.6 99 1023.7 11.4 N 15.2 0.0 0.0
02:56 10.6 10.5 99 1023.7 6.9 NW 14.5 0.0 0.0
02:58 10.6 10.5 99 1023.7 10.7 NW 13.6 0.0 0.0
02:59 10.6 10.5 99 1023.7 8.3 NW 13.6 0.0 0.0
03:09 10.6 10.5 99 1023.7 14.5 NW 14.5 0.0 0.0
03:21 10.4 10.3 99 1023.7 8.3 NW 10.7 0.0 0.0
03:32 10.4 10.3 99 1023.7 9.2 N 13.0 0.0 0.0
04:05 10.3 10.0 98 1023.7 6.9 N 10.7 0.0 0.0
04:06 10.3 10.0 98 1023.7 6.0 NW 10.7 0.0 0.0
04:10 10.3 10.0 98 1023.7 4.5 NE 10.7 0.0 0.0
00:45 11.8 11.7 99 1023.8 7.6 N 15.2 0.0 0.0
00:53 11.8 11.7 99 1023.8 10.7 N 15.2 0.0 0.0
01:22 11.7 11.6 99 1023.8 9.2 NW 12.1 0.0 0.0
01:34 11.7 11.6 99 1023.8 8.3 NW 13.0 0.0 0.0
01:36 11.6 11.5 99 1023.8 8.3 NW 13.0 0.0 0.0
01:41 11.6 11.5 99 1023.8 15.9 NW 15.9 0.0 0.0
01:42 11.6 11.5 99 1023.8 13.0 NW 15.9 0.0 0.0
01:44 11.6 11.5 99 1023.8 9.2 NW 15.9 0.0 0.0
01:46 11.6 11.5 99 1023.8 9.8 NW 15.9 0.0 0.0
01:47 11.6 11.5 99 1023.8 9.2 NW 15.9 0.0 0.0
01:49 11.5 11.4 99 1023.8 7.6 N 15.9 0.0 0.0
01:54 11.5 11.4 99 1023.8 10.7 N 12.1 0.0 0.0
01:55 11.5 11.4 99 1023.8 9.8 NW 12.1 0.0 0.0
01:57 11.4 11.3 99 1023.8 14.5 N 14.5 0.0 0.0
01:59 11.4 11.3 99 1023.8 12.1 N 14.5 0.0 0.0
02:02 11.4 11.3 99 1023.8 9.8 NW 14.5 0.0 0.0
02:06 11.3 11.2 99 1023.8 8.3 NW 14.5 0.0 0.0
02:12 11.2 11.1 99 1023.8 12.1 NE 12.1 0.0 0.0
02:13 11.2 11.1 99 1023.8 9.8 N 12.1 0.0 0.0
02:15 11.2 11.1 99 1023.8 13.0 SE 13.0 0.0 0.0
02:16 11.2 11.1 99 1023.8 9.2 N 13.0 0.0 0.0
02:19 11.1 11.0 99 1023.8 15.2 N 15.2 0.0 0.0
02:23 11.0 10.9 99 1023.8 12.1 N 15.2 0.0 0.0
02:24 11.1 11.0 99 1023.8 11.4 NW 15.2 0.0 0.0
02:26 11.0 10.9 99 1023.8 15.9 N 15.9 0.0 0.0
02:28 11.0 10.9 99 1023.8 7.6 NW 15.9 0.0 0.0
02:29 11.0 10.9 99 1023.8 6.0 N 15.9 0.0 0.0
02:34 10.9 10.8 99 1023.8 12.1 N 15.9 0.0 0.0
02:35 10.9 10.8 99 1023.8 13.0 E 15.9 0.0 0.0
02:37 10.9 10.8 99 1023.8 12.1 N 15.9 0.0 0.0
02:38 10.8 10.7 99 1023.8 11.4 NW 15.2 0.0 0.0
02:41 10.8 10.7 99 1023.8 15.2 NW 15.2 0.0 0.0
02:46 10.7 10.6 99 1023.8 14.5 NW 15.2 0.0 0.0
02:48 10.7 10.6 99 1023.8 9.2 W 15.2 0.0 0.0
02:50 10.7 10.6 99 1023.8 8.3 NW 15.2 0.0 0.0
02:51 10.7 10.6 99 1023.8 7.6 NE 15.2 0.0 0.0
02:52 10.7 10.6 99 1023.8 13.0 N 14.5 0.0 0.0
02:53 10.7 10.6 99 1023.8 13.0 NE 14.5 0.0 0.0
02:54 10.7 10.6 99 1023.8 8.3 N 14.5 0.0 0.0
02:55 10.7 10.6 99 1023.8 7.6 NW 14.5 0.0 0.0
02:57 10.6 10.5 99 1023.8 6.9 N 13.6 0.0 0.0
03:01 10.6 10.5 99 1023.8 6.9 NW 13.6 0.0 0.0
03:02 10.6 10.5 99 1023.8 6.9 NW 13.6 0.0 0.0
03:03 10.6 10.5 99 1023.8 6.9 NW 13.6 0.0 0.0
03:04 10.6 10.5 99 1023.8 6.9 NW 13.6 0.0 0.0
03:05 10.6 10.5 99 1023.8 6.9 NW 13.6 0.0 0.0
03:11 10.5 10.4 99 1023.8 6.0 NW 14.5 0.0 0.0
03:13 10.5 10.4 99 1023.8 6.0 NW 14.5 0.0 0.0
03:18 10.5 10.4 99 1023.8 9.8 N 14.5 0.0 0.0
03:19 10.5 10.4 99 1023.8 9.8 NW 14.5 0.0 0.0
03:23 10.4 10.3 99 1023.8 8.3 N 10.7 0.0 0.0
03:26 10.4 10.3 99 1023.8 12.1 N 12.1 0.0 0.0
03:27 10.4 10.3 99 1023.8 9.8 N 12.1 0.0 0.0
03:35 10.4 10.3 99 1023.8 11.4 N 13.0 0.0 0.0
03:40 10.4 10.3 99 1023.8 8.3 NW 11.4 0.0 0.0
03:41 10.4 10.3 99 1023.8 9.2 N 11.4 0.0 0.0
03:42 10.4 10.3 99 1023.8 6.9 NE 11.4 0.0 0.0
03:46 10.4 10.1 98 1023.8 15.9 NW 15.9 0.0 0.0
03:48 10.3 10.0 98 1023.8 9.2 N 15.9 0.0 0.0
03:49 10.3 10.0 98 1023.8 6.0 NW 15.9 0.0 0.0
03:51 10.3 10.0 98 1023.8 9.2 N 15.9 0.0 0.0
03:53 10.3 10.0 98 1023.8 10.7 NW 15.9 0.0 0.0
03:54 10.3 10.0 98 1023.8 9.2 NW 15.9 0.0 0.0
03:56 10.3 10.0 98 1023.8 7.6 NW 15.9 0.0 0.0
03:59 10.3 10.0 98 1023.8 8.3 NW 10.7 0.0 0.0
04:00 10.3 10.0 98 1023.8 7.6 NW 10.7 0.0 0.0
04:01 10.3 10.0 98 1023.8 7.6 NW 10.7 0.0 0.0
04:04 10.3 10.0 98 1023.8 7.6 NW 10.7 0.0 0.0
04:07 10.3 10.0 98 1023.8 5.4 N 10.7 0.0 0.0
04:08 10.3 10.0 98 1023.8 4.5 N 10.7 0.0 0.0
04:11 10.3 10.0 98 1023.8 6.9 NW 10.7 0.0 0.0
04:19 10.2 9.9 98 1023.8 9.8 N 9.8 0.0 0.0
04:20 10.2 9.9 98 1023.8 7.6 NW 9.8 0.0 0.0
04:24 10.2 9.9 98 1023.8 10.7 NW 10.7 0.0 0.0
04:25 10.2 9.9 98 1023.8 6.9 NW 10.7 0.0 0.0
04:28 10.2 9.9 98 1023.8 7.6 NW 10.7 0.0 0.0
04:30 10.2 9.9 98 1023.8 7.6 NW 10.7 0.0 0.0
04:31 10.3 10.0 98 1023.8 6.9 NE 10.7 0.0 0.0
04:32 10.3 10.0 98 1023.8 10.7 N 10.7 0.0 0.0
04:33 10.3 10.0 98 1023.8 8.3 NW 10.7 0.0 0.0
04:34 10.3 10.0 98 1023.8 9.8 N 10.7 0.0 0.0
04:37 10.2 9.9 98 1023.8 4.5 NW 10.7 0.0 0.0
04:38 10.3 10.0 98 1023.8 7.6 N 10.7 0.0 0.0
04:39 10.3 10.0 98 1023.8 7.6 NW 10.7 0.0 0.0
04:42 10.3 10.0 98 1023.8 9.2 NW 10.7 0.0 0.0
04:43 10.3 10.0 98 1023.8 6.0 NW 9.8 0.0 0.0
04:45 10.3 10.0 98 1023.8 7.6 NE 9.2 0.0 0.0
04:46 10.3 10.0 98 1023.8 8.3 NW 9.2 0.0 0.0
04:48 10.3 10.0 98 1023.8 5.4 NW 9.2 0.0 0.0
05:01 10.3 10.0 98 1023.8 6.9 NW 10.7 0.0 0.0
02:45 10.7 10.6 99 1023.9 13.0 NE 15.2 0.0 0.0
03:07 10.6 10.5 99 1023.9 7.6 NE 10.7 0.0 0.0
03:08 10.6 10.5 99 1023.9 9.8 N 10.7 0.0 0.0
03:10 10.5 10.4 99 1023.9 6.9 NW 14.5 0.0 0.0
03:14 10.5 10.4 99 1023.9 6.9 N 14.5 0.0 0.0
03:15 10.5 10.4 99 1023.9 5.4 N 14.5 0.0 0.0
03:20 10.4 10.3 99 1023.9 10.7 N 10.7 0.0 0.0
03:24 10.4 10.3 99 1023.9 4.5 N 10.7 0.0 0.0
03:28 10.4 10.3 99 1023.9 9.8 NW 12.1 0.0 0.0
03:29 10.4 10.3 99 1023.9 13.0 NE 13.0 0.0 0.0
03:30 10.4 10.3 99 1023.9 9.2 N 13.0 0.0 0.0
03:31 10.4 10.3 99 1023.9 9.8 N 13.0 0.0 0.0
03:34 10.4 10.3 99 1023.9 8.3 N 13.0 0.0 0.0
03:36 10.4 10.3 99 1023.9 8.3 N 13.0 0.0 0.0
03:39 10.4 10.3 99 1023.9 5.4 N 13.0 0.0 0.0
03:44 10.4 10.1 98 1023.9 8.3 NW 13.6 0.0 0.0
03:45 10.3 10.0 98 1023.9 9.2 N 13.6 0.0 0.0
03:47 10.3 10.0 98 1023.9 10.7 NW 15.9 0.0 0.0
03:52 10.3 10.0 98 1023.9 6.9 W 15.9 0.0 0.0
03:55 10.3 10.0 98 1023.9 6.9 NE 15.9 0.0 0.0
03:57 10.3 10.0 98 1023.9 8.3 NW 11.4 0.0 0.0
03:58 10.3 10.0 98 1023.9 6.0 N 10.7 0.0 0.0
04:02 10.3 10.0 98 1023.9 10.7 NE 10.7 0.0 0.0
04:12 10.2 9.9 98 1023.9 7.6 N 10.7 0.0 0.0
04:13 10.2 9.9 98 1023.9 5.4 NW 8.3 0.0 0.0
04:14 10.2 9.9 98 1023.9 4.5 NW 8.3 0.0 0.0
04:15 10.2 9.9 98 1023.9 9.2 NW 9.2 0.0 0.0
04:16 10.2 9.9 98 1023.9 6.9 NW 9.2 0.0 0.0
04:18 10.2 9.9 98 1023.9 5.4 NW 9.2 0.0 0.0
04:21 10.2 9.9 98 1023.9 7.6 WNW 9.8 0.0 0.0
04:22 10.2 9.9 98 1023.9 9.2 WNW 9.8 0.0 0.0
04:23 10.3 10.0 98 1023.9 3.8 N 9.8 0.0 0.0
04:26 10.2 9.9 98 1023.9 6.0 W 10.7 0.0 0.0
04:27 10.2 9.9 98 1023.9 5.4 NW 10.7 0.0 0.0
04:35 10.2 9.9 98 1023.9 6.9 N 10.7 0.0 0.0
04:41 10.3 10.0 98 1023.9 7.6 N 10.7 0.0 0.0
04:47 10.3 10.0 98 1023.9 6.9 N 9.2 0.0 0.0
04:49 10.3 10.0 98 1023.9 6.9 NW 9.2 0.0 0.0
04:53 10.3 10.0 98 1023.9 6.0 N 8.3 0.0 0.0
04:54 10.3 10.0 98 1023.9 6.9 N 8.3 0.0 0.0
04:56 10.3 10.0 98 1023.9 4.5 N 8.3 0.0 0.0
04:57 10.3 10.0 98 1023.9 9.8 NW 9.8 0.0 0.0
05:02 10.3 10.0 98 1023.9 6.9 NW 10.7 0.0 0.0
05:08 10.3 9.8 97 1023.9 9.8 N 11.4 0.0 0.0
02:43 10.8 10.7 99 1024.0 9.2 N 15.2 0.0 0.0
03:06 10.6 10.5 99 1024.0 6.9 NE 13.6 0.0 0.0
03:16 10.5 10.4 99 1024.0 4.5 N 14.5 0.0 0.0
03:17 10.5 10.4 99 1024.0 5.4 N 14.5 0.0 0.0
03:22 10.4 10.3 99 1024.0 5.4 NW 10.7 0.0 0.0
03:33 10.4 10.3 99 1024.0 6.9 NW 13.0 0.0 0.0
03:38 10.4 10.3 99 1024.0 9.8 NW 13.0 0.0 0.0
03:43 10.4 10.3 99 1024.0 13.6 NE 13.6 0.0 0.0
04:36 10.3 10.0 98 1024.0 5.4 N 10.7 0.0 0.0
04:44 10.3 10.0 98 1024.0 6.0 NW 9.8 0.0 0.0
04:51 10.3 10.0 98 1024.0 8.3 N 9.2 0.0 0.0
04:52 10.3 10.0 98 1024.0 6.0 N 8.3 0.0 0.0
04:55 10.3 10.0 98 1024.0 8.3 NW 8.3 0.0 0.0
04:58 10.3 10.0 98 1024.0 4.5 N 9.8 0.0 0.0
05:00 10.3 10.0 98 1024.0 6.9 NW 10.7 0.0 0.0
05:04 10.3 10.0 98 1024.0 6.9 NW 10.7 0.0 0.0
05:05 10.3 10.0 98 1024.0 6.9 NW 10.7 0.0 0.0
05:07 10.3 10.0 98 1024.0 9.2 N 11.4 0.0 0.0
05:12 10.3 9.8 97 1024.0 8.3 E 11.4 0.0 0.0
05:15 10.3 9.8 97 1024.0 9.2 NW 11.4 0.0 0.0
05:17 10.3 9.8 97 1024.0 11.4 NW 11.4 0.0 0.0
05:26 10.3 9.8 97 1024.0 9.8 N 15.2 0.0 0.0
05:28 10.3 9.8 97 1024.0 9.8 N 15.2 0.0 0.0
05:31 10.3 9.8 97 1024.0 9.2 N 15.2 0.0 0.0
05:33 10.3 9.8 97 1024.0 9.2 NW 15.2 0.0 0.0
05:36 10.3 9.8 97 1024.0 4.5 N 13.0 0.0 0.0
04:59 10.3 10.0 98 1024.1 10.7 N 10.7 0.0 0.0
05:03 10.3 10.0 98 1024.1 6.9 NW 10.7 0.0 0.0
05:06 10.3 10.0 98 1024.1 11.4 NW 11.4 0.0 0.0
05:09 10.3 10.0 98 1024.1 10.7 N 11.4 0.0 0.0
05:10 10.3 9.8 97 1024.1 9.8 NW 11.4 0.0 0.0
05:11 10.3 9.8 97 1024.1 11.4 NW 11.4 0.0 0.0
05:13 10.3 9.8 97 1024.1 9.8 N 11.4 0.0 0.0
05:16 10.3 9.8 97 1024.1 11.4 N 11.4 0.0 0.0
05:18 10.3 9.8 97 1024.1 9.2 N 11.4 0.0 0.0
05:19 10.3 9.8 97 1024.1 9.2 N 11.4 0.0 0.0
05:20 10.3 9.8 97 1024.1 9.8 N 11.4 0.0 0.0
05:22 10.3 9.8 97 1024.1 9.2 NW 11.4 0.0 0.0
05:24 10.3 9.8 97 1024.1 15.2 N 15.2 0.0 0.0
05:25 10.3 9.8 97 1024.1 10.7 N 15.2 0.0 0.0
05:29 10.3 9.8 97 1024.1 6.9 NW 15.2 0.0 0.0
05:30 10.3 9.8 97 1024.1 9.2 NW 15.2 0.0 0.0
05:35 10.2 9.7 97 1024.1 8.3 NW 13.0 0.0 0.0
05:38 10.2 9.7 97 1024.1 6.9 N 13.0 0.0 0.0
05:41 10.2 9.7 97 1024.1 5.4 NW 13.6 0.0 0.0
05:42 10.2 9.7 97 1024.1 9.8 N 13.6 0.0 0.0
05:43 10.2 9.7 97 1024.1 4.5 N 13.6 0.0 0.0
05:44 10.2 9.7 97 1024.1 5.4 N 13.6 0.0 0.0
05:46 10.2 9.7 97 1024.1 9.8 W 13.6 0.0 0.0
05:58 10.1 9.6 97 1024.1 6.0 NW 13.6 0.0 0.0
06:07 10.1 9.6 97 1024.1 9.2 WNW 10.7 0.0 0.0
05:14 10.3 9.8 97 1024.2 8.3 NW 11.4 0.0 0.0
05:21 10.3 9.8 97 1024.2 6.0 NE 11.4 0.0 0.0
05:27 10.3 9.8 97 1024.2 5.4 NW 15.2 0.0 0.0
05:37 10.2 9.7 97 1024.2 8.3 NW 13.0 0.0 0.0
05:39 10.2 9.7 97 1024.2 9.2 NE 13.6 0.0 0.0
05:40 10.2 9.7 97 1024.2 6.9 NW 13.6 0.0 0.0
05:45 10.2 9.7 97 1024.2 7.6 N 13.6 0.0 0.0
05:51 10.2 9.7 97 1024.2 9.2 NW 13.6 0.0 0.0
05:52 10.1 9.6 97 1024.2 8.3 NW 13.6 0.0 0.0
05:53 10.2 9.7 97 1024.2 9.8 N 13.6 0.0 0.0
05:54 10.2 9.7 97 1024.2 11.4 WNW 13.6 0.0 0.0
05:56 10.2 9.7 97 1024.2 13.0 N 13.6 0.0 0.0
05:59 10.1 9.6 97 1024.2 3.8 N 13.6 0.0 0.0
06:00 10.1 9.6 97 1024.2 9.2 N 13.6 0.0 0.0
06:03 10.1 9.6 97 1024.2 10.7 NW 13.6 0.0 0.0
06:04 10.1 9.6 97 1024.2 8.3 NW 13.6 0.0 0.0
06:09 10.1 9.6 97 1024.2 9.8 N 13.6 0.0 0.0
06:32 10.1 9.6 97 1024.2 14.5 N 14.5 0.0 0.0
06:33 10.1 9.5 96 1024.2 8.3 NW 15.2 0.0 0.0
06:34 10.1 9.5 96 1024.2 11.4 NW 15.2 0.0 0.0
06:35 10.1 9.6 97 1024.2 12.1 N 15.2 0.0 0.0
06:37 10.1 9.6 97 1024.2 9.2 NW 17.4 0.0 0.0
06:46 10.1 9.6 97 1024.2 6.9 N 17.4 0.0 0.0
06:47 10.1 9.6 97 1024.2 10.7 N 12.1 0.0 0.0
06:48 10.1 9.6 97 1024.2 10.7 NE 12.1 0.0 0.0
06:51 10.1 9.6 97 1024.2 8.3 NW 11.4 0.0 0.0
07:02 10.1 9.5 96 1024.2 7.6 N 13.0 0.0 0.0
07:03 10.1 9.5 96 1024.2 9.8 N 13.0 0.0 0.0
07:13 10.1 9.5 96 1024.2 5.4 NE 11.4 0.0 0.0
07:22 10.1 9.5 96 1024.2 9.8 NW 12.1 0.0 0.0
05:23 10.3 9.8 97 1024.3 3.8 N 11.4 0.0 0.0
05:47 10.2 9.7 97 1024.3 13.6 NW 13.6 0.0 0.0
05:48 10.2 9.7 97 1024.3 6.0 NW 13.6 0.0 0.0
05:49 10.2 9.7 97 1024.3 9.8 NW 13.6 0.0 0.0
05:50 10.2 9.7 97 1024.3 6.0 NW 13.6 0.0 0.0
05:55 10.2 9.7 97 1024.3 8.3 NW 13.6 0.0 0.0
05:57 10.1 9.6 97 1024.3 6.9 NW 13.6 0.0 0.0
06:01 10.1 9.6 97 1024.3 9.2 NW 13.6 0.0 0.0
06:02 10.1 9.6 97 1024.3 6.9 NW 13.6 0.0 0.0
06:05 10.1 9.6 97 1024.3 9.8 N 13.0 0.0 0.0
06:06 10.1 9.6 97 1024.3 5.4 NW 10.7 0.0 0.0
06:10 10.1 9.6 97 1024.3 10.7 W 13.6 0.0 0.0
06:13 10.1 9.6 97 1024.3 7.6 N 13.6 0.0 0.0
06:14 10.1 9.6 97 1024.3 10.7 N 13.6 0.0 0.0
06:15 10.1 9.6 97 1024.3 10.7 NW 13.6 0.0 0.0
06:17 10.1 9.6 97 1024.3 9.2 NW 13.6 0.0 0.0
06:18 10.1 9.6 97 1024.3 13.0 W 13.6 0.0 0.0
06:19 10.1 9.6 97 1024.3 11.4 NW 13.0 0.0 0.0
06:20 10.1 9.6 97 1024.3 9.8 NW 13.0 0.0 0.0
06:21 10.1 9.6 97 1024.3 9.2 N 13.0 0.0 0.0
06:22 10.1 9.6 97 1024.3 9.8 N 13.0 0.0 0.0
06:23 10.1 9.6 97 1024.3 9.2 S 13.0 0.0 0.0
06:24 10.1 9.6 97 1024.3 6.0 NW 13.0 0.0 0.0
06:25 10.1 9.5 96 1024.3 8.3 NW 13.0 0.0 0.0
06:26 10.1 9.6 97 1024.3 8.3 NE 13.0 0.0 0.0
06:28 10.1 9.6 97 1024.3 8.3 NW 11.4 0.0 0.0
06:29 10.1 9.6 97 1024.3 8.3 NW 9.8 0.0 0.0
06:30 10.1 9.6 97 1024.3 13.0 N 13.0 0.0 0.0
06:31 10.1 9.6 97 1024.3 9.2 N 13.0 0.0 0.0
06:36 10.1 9.6 97 1024.3 9.2 N 15.2 0.0 0.0
06:38 10.1 9.6 97 1024.3 12.1 W 17.4 0.0 0.0
06:39 10.1 9.5 96 1024.3 8.3 N 17.4 0.0 0.0
06:41 10.1 9.6 97 1024.3 6.9 NW 17.4 0.0 0.0
06:42 10.1 9.6 97 1024.3 10.7 N 17.4 0.0 0.0
06:43 10.1 9.6 97 1024.3 8.3 N 17.4 0.0 0.0
06:44 10.1 9.6 97 1024.3 6.0 NW 17.4 0.0 0.0
06:45 10.1 9.5 96 1024.3 7.6 W 17.4 0.0 0.0
06:49 10.1 9.6 97 1024.3 11.4 NW 11.4 0.0 0.0
06:52 10.1 9.5 96 1024.3 10.7 NE 11.4 0.0 0.0
06:53 10.1 9.5 96 1024.3 10.7 NW 11.4 0.0 0.0
06:54 10.1 9.5 96 1024.3 6.0 N 11.4 0.0 0.0
06:55 10.1 9.5 96 1024.3 6.0 N 11.4 0.0 0.0
06:56 10.1 9.6 97 1024.3 9.2 N 11.4 0.0 0.0
06:57 10.1 9.6 97 1024.3 5.4 N 13.0 0.0 0.0
06:58 10.1 9.5 96 1024.3 8.3 N 13.0 0.0 0.0
06:59 10.1 9.5 96 1024.3 6.0 N 13.0 0.0 0.0
07:00 10.1 9.5 96 1024.3 12.1 W 13.0 0.0 0.0
07:04 10.1 9.5 96 1024.3 9.8 NW 13.0 0.0 0.0
07:05 10.1 9.5 96 1024.3 11.4 NW 13.0 0.0 0.0
07:07 10.1 9.6 97 1024.3 5.4 N 12.1 0.0 0.0
07:09 10.1 9.5 96 1024.3 7.6 N 12.1 0.0 0.0
07:11 10.1 9.5 96 1024.3 10.7 N 12.1 0.0 0.0
07:12 10.1 9.5 96 1024.3 8.3 N 11.4 0.0 0.0
07:14 10.1 9.5 96 1024.3 5.4 N 11.4 0.0 0.0
07:15 10.1 9.5 96 1024.3 4.5 N 11.4 0.0 0.0
07:17 10.1 9.5 96 1024.3 7.6 N 10.7 0.0 0.0
07:18 10.1 9.5 96 1024.3 5.4 N 10.7 0.0 0.0
07:19 10.1 9.5 96 1024.3 12.1 NW 12.1 0.0 0.0
07:21 10.1 9.6 97 1024.3 10.7 N 12.1 0.0 0.0
06:12 10.1 9.6 97 1024.4 8.3 N 13.6 0.0 0.0
06:16 10.1 9.6 97 1024.4 12.1 N 13.6 0.0 0.0
06:27 10.1 9.6 97 1024.4 6.0 NW 13.0 0.0 0.0
06:50 10.1 9.5 96 1024.4 6.0 NW 11.4 0.0 0.0
07:01 10.1 9.5 96 1024.4 12.1 N 13.0 0.0 0.0
07:06 10.1 9.5 96 1024.4 11.4 N 13.0 0.0 0.0
07:08 10.1 9.6 97 1024.4 10.7 WNW 12.1 0.0 0.0
07:16 10.1 9.5 96 1024.4 6.0 N 11.4 0.0 0.0
07:20 10.1 9.6 97 1024.4 8.3 N 12.1 0.0 0.0
07:24 10.1 9.5 96 1024.4 6.0 N 12.1 0.0 0.0
07:25 10.2 9.6 96 1024.4 6.0 N 12.1 0.0 0.0
07:27 10.2 9.6 96 1024.4 8.3 N 12.1 0.0 0.0
07:29 10.2 9.6 96 1024.4 8.3 N 10.7 0.0 0.0
07:32 10.2 9.6 96 1024.4 4.5 N 9.8 0.0 0.0
07:40 10.2 9.6 96 1024.4 9.8 NW 11.4 0.0 0.0
07:23 10.1 9.5 96 1024.5 6.9 NW 12.1 0.0 0.0
07:26 10.2 9.6 96 1024.5 9.2 NW 12.1 0.0 0.0
07:28 10.2 9.6 96 1024.5 8.3 N 12.1 0.0 0.0
07:30 10.2 9.6 96 1024.5 9.2 NW 10.7 0.0 0.0
07:31 10.2 9.6 96 1024.5 7.6 N 9.8 0.0 0.0
07:34 10.2 9.6 96 1024.5 7.6 NE 9.8 0.0 0.0
07:36 10.2 9.6 96 1024.5 7.6 NW 9.8 0.0 0.0
07:39 10.2 9.6 96 1024.5 6.0 NW 11.4 0.0 0.0
07:33 10.2 9.6 96 1024.6 8.3 N 9.8 0.0 0.0
07:35 10.2 9.6 96 1024.6 4.5 N 9.8 0.0 0.0
07:37 10.2 9.6 96 1024.6 11.4 W 11.4 0.0 0.0
07:41 10.2 9.6 96 1024.6 9.2 NW 11.4 0.0 0.0
07:42 10.2 9.6 96 1024.6 9.2 N 11.4 0.0 0.0
07:46 10.2 9.6 96 1024.6 8.3 N 11.4 0.0 0.0
07:47 10.2 9.6 96 1024.6 6.0 N 11.4 0.0 0.0
07:49 10.2 9.6 96 1024.6 7.6 NW 9.8 0.0 0.0
07:53 10.3 9.7 96 1024.6 7.6 NW 11.4 0.0 0.0
07:43 10.2 9.6 96 1024.7 6.9 W 11.4 0.0 0.0
07:44 10.2 9.6 96 1024.7 7.6 NW 11.4 0.0 0.0
07:45 10.2 9.6 96 1024.7 8.3 NW 11.4 0.0 0.0
07:50 10.2 9.6 96 1024.7 11.4 N 11.4 0.0 0.0
07:51 10.3 9.7 96 1024.7 6.9 W 11.4 0.0 0.0
07:52 10.3 9.7 96 1024.7 6.9 NW 11.4 0.0 0.0
07:54 10.3 9.7 96 1024.7 6.9 N 11.4 0.0 0.0
07:55 10.3 9.7 96 1024.7 9.2 NW 11.4 0.0 0.0
08:02 10.4 9.8 96 1024.7 13.0 NW 13.0 0.0 0.0
08:03 10.4 9.8 96 1024.7 8.3 NW 13.0 0.0 0.0
07:48 10.2 9.6 96 1024.8 7.6 NW 9.8 0.0 0.0
07:57 10.3 9.7 96 1024.8 6.9 NW 11.4 0.0 0.0
07:59 10.3 9.7 96 1024.8 8.3 NNW 13.0 0.0 0.0
08:00 10.3 9.7 96 1024.8 8.3 NNW 13.0 0.0 0.0
08:05 10.4 9.8 96 1024.8 9.8 NW 13.0 0.0 0.0
08:06 10.4 9.8 96 1024.8 9.2 NW 13.0 0.0 0.0
08:10 10.5 9.9 96 1024.8 8.3 N 13.0 0.0 0.0
08:30 10.6 10.0 96 1024.8 6.9 NW 10.7 0.0 0.0
08:37 10.6 10.0 96 1024.8 10.7 NW 10.7 0.0 0.0
08:38 10.6 10.0 96 1024.8 11.4 NW 11.4 0.0 0.0
08:39 10.6 10.0 96 1024.8 6.9 NW 11.4 0.0 0.0
09:18 11.1 10.5 96 1024.8 10.7 N 11.4 0.0 0.0
07:56 10.3 9.7 96 1024.9 8.3 NW 11.4 0.0 0.0
08:08 10.4 9.8 96 1024.9 9.8 N 13.0 0.0 0.0
08:14 10.5 9.9 96 1024.9 7.6 N 12.1 0.0 0.0
08:15 10.5 9.9 96 1024.9 10.7 WNW 12.1 0.0 0.0
08:19 10.5 9.9 96 1024.9 6.9 NW 12.1 0.0 0.0
08:21 10.5 9.9 96 1024.9 6.0 NW 12.1 0.0 0.0
08:25 10.5 9.9 96 1024.9 4.5 N 10.7 0.0 0.0
08:29 10.6 10.0 96 1024.9 10.7 N 10.7 0.0 0.0
08:31 10.6 10.0 96 1024.9 9.2 NW 10.7 0.0 0.0
08:32 10.6 10.0 96 1024.9 8.3 NW 10.7 0.0 0.0
08:36 10.6 10.0 96 1024.9 6.9 NE 10.7 0.0 0.0
08:45 10.6 10.0 96 1024.9 9.8 N 11.4 0.0 0.0
08:49 10.6 10.0 96 1024.9 12.1 NW 12.1 0.0 0.0
08:51 10.6 10.0 96 1024.9 8.3 E 12.1 0.0 0.0
08:53 10.7 10.1 96 1024.9 12.1 NE 12.1 0.0 0.0
08:56 10.7 10.1 96 1024.9 8.3 NW 13.0 0.0 0.0
09:05 10.8 10.2 96 1024.9 5.4 N 13.0 0.0 0.0
09:06 10.8 10.2 96 1024.9 9.8 N 13.0 0.0 0.0
09:09 10.9 10.3 96 1024.9 11.4 NW 13.0 0.0 0.0
09:11 10.9 10.3 96 1024.9 11.4 N 13.0 0.0 0.0
08:04 10.4 9.8 96 1025.0 7.6 N 13.0 0.0 0.0
08:07 10.4 9.8 96 1025.0 9.8 NW 13.0 0.0 0.0
08:12 10.5 9.9 96 1025.0 9.8 NW 12.1 0.0 0.0
08:16 10.5 9.9 96 1025.0 5.4 N 12.1 0.0 0.0
08:17 10.5 9.9 96 1025.0 6.0 NW 12.1 0.0 0.0
08:18 10.5 9.9 96 1025.0 9.2 N 12.1 0.0 0.0
08:20 10.5 9.9 96 1025.0 9.8 N 12.1 0.0 0.0
08:22 10.5 9.9 96 1025.0 9.2 NW 10.7 0.0 0.0
08:23 10.5 9.9 96 1025.0 6.0 W 10.7 0.0 0.0
08:26 10.5 9.9 96 1025.0 9.2 N 10.7 0.0 0.0
08:27 10.6 10.0 96 1025.0 8.3 NW 10.7 0.0 0.0
08:33 10.6 10.0 96 1025.0 10.7 NW 10.7 0.0 0.0
08:34 10.6 10.0 96 1025.0 8.3 N 10.7 0.0 0.0
08:35 10.6 10.0 96 1025.0 6.9 NW 10.7 0.0 0.0
08:41 10.6 10.0 96 1025.0 9.2 NE 11.4 0.0 0.0
08:44 10.6 10.0 96 1025.0 7.6 N 11.4 0.0 0.0
08:46 10.6 10.0 96 1025.0 10.7 NW 11.4 0.0 0.0
08:47 10.6 10.0 96 1025.0 11.4 N 11.4 0.0 0.0
08:48 10.6 10.0 96 1025.0 8.3 N 11.4 0.0 0.0
08:57 10.7 10.1 96 1025.0 12.1 NW 13.0 0.0 0.0
09:00 10.7 10.1 96 1025.0 13.0 N 13.0 0.0 0.0
09:02 10.8 10.2 96 1025.0 7.6 N 13.0 0.0 0.0
09:04 10.8 10.2 96 1025.0 9.8 N 13.0 0.0 0.0
09:07 10.8 10.2 96 1025.0 13.0 N 13.0 0.0 0.0
09:08 10.9 10.3 96 1025.0 10.7 NW 13.0 0.0 0.0
09:10 10.9 10.3 96 1025.0 7.6 N 13.0 0.0 0.0
09:12 11.0 10.4 96 1025.0 8.3 N 13.0 0.0 0.0
09:15 11.0 10.4 96 1025.0 7.6 E 13.0 0.0 0.0
09:16 11.0 10.4 96 1025.0 9.8 N 13.0 0.0 0.0
09:19 11.1 10.5 96 1025.0 10.7 NW 11.4 0.0 0.0
09:20 11.1 10.5 96 1025.0 6.9 NW 11.4 0.0 0.0
09:21 11.1 10.5 96 1025.0 8.3 N 11.4 0.0 0.0
09:22 11.2 10.6 96 1025.0 10.7 N 11.4 0.0 0.0
08:11 10.5 9.9 96 1025.1 7.6 NW 13.0 0.0 0.0
08:24 10.5 9.9 96 1025.1 6.9 N 10.7 0.0 0.0
08:40 10.6 10.0 96 1025.1 5.4 NW 11.4 0.0 0.0
08:43 10.6 10.0 96 1025.1 9.8 NE 11.4 0.0 0.0
08:50 10.6 10.0 96 1025.1 6.9 N 12.1 0.0 0.0
08:52 10.7 10.1 96 1025.1 10.7 WNW 12.1 0.0 0.0
08:54 10.7 10.1 96 1025.1 9.8 NE 12.1 0.0 0.0
08:55 10.7 10.1 96 1025.1 13.0 N 13.0 0.0 0.0
09:01 10.7 10.1 96 1025.1 13.0 N 13.0 0.0 0.0
09:03 10.8 10.2 96 1025.1 9.2 WNW 13.0 0.0 0.0
09:13 11.0 10.4 96 1025.1 9.2 NE 13.0 0.0 0.0
09:14 11.0 10.4 96 1025.1 9.2 N 13.0 0.0 0.0
09:23 11.2 10.6 96 1025.1 6.9 NE 11.4 0.0 0.0
09:24 11.2 10.6 96 1025.1 11.4 W 11.4 0.0 0.0
09:25 11.2 10.6 96 1025.1 8.3 NW 11.4 0.0 0.0
09:26 11.2 10.6 96 1025.1 9.2 NW 11.4 0.0 0.0
09:27 11.2 10.6 96 1025.1 6.0 N 11.4 0.0 0.0
09:33 11.2 10.6 96 1025.1 9.2 NW 11.4 0.0 0.0
09:34 11.2 10.6 96 1025.1 9.2 W 11.4 0.0 0.0
09:28 11.2 10.6 96 1025.2 11.4 NW 11.4 0.0 0.0
09:29 11.2 10.6 96 1025.2 6.0 N 11.4 0.0 0.0
09:31 11.2 10.6 96 1025.2 3.8 NW 11.4 0.0 0.0
09:32 11.2 10.6 96 1025.2 7.6 N 11.4 0.0 0.0
09:35 11.2 10.6 96 1025.2 4.5 NE 11.4 0.0 0.0
09:39 11.3 10.7 96 1025.2 5.4 N 12.1 0.0 0.0
09:45 11.3 10.5 95 1025.2 5.4 N 12.1 0.0 0.0
09:46 11.3 10.5 95 1025.2 6.0 NW 12.1 0.0 0.0
09:47 11.3 10.7 96 1025.2 8.3 N 9.8 0.0 0.0
09:30 11.2 10.6 96 1025.3 3.8 NW 11.4 0.0 0.0
09:36 11.2 10.6 96 1025.3 12.1 NW 12.1 0.0 0.0
09:38 11.2 10.4 95 1025.3 3.8 NW 12.1 0.0 0.0
09:40 11.2 10.4 95 1025.3 6.0 N 12.1 0.0 0.0
09:41 11.2 10.6 96 1025.3 7.6 N 12.1 0.0 0.0
09:43 11.3 10.7 96 1025.3 8.3 NE 12.1 0.0 0.0
09:44 11.3 10.5 95 1025.3 6.9 NW 12.1 0.0 0.0
09:48 11.3 10.7 96 1025.3 9.8 N 9.8 0.0 0.0
09:49 11.3 10.7 96 1025.3 7.6 N 9.8 0.0 0.0
09:50 11.3 10.7 96 1025.3 5.4 NE 9.8 0.0 0.0
09:51 11.3 10.5 95 1025.3 13.0 NW 13.0 0.0 0.0
09:58 11.5 10.9 96 1025.3 3.8 NW 13.0 0.0 0.0
10:13 11.5 10.9 96 1025.3 6.0 NW 9.2 0.0 0.0
10:14 11.6 11.0 96 1025.3 7.6 NW 9.2 0.0 0.0
09:42 11.3 10.7 96 1025.4 3.1 N 12.1 0.0 0.0
09:52 11.4 10.8 96 1025.4 12.1 NE 13.0 0.0 0.0
09:53 11.4 10.8 96 1025.4 6.0 NE 13.0 0.0 0.0
09:54 11.4 10.8 96 1025.4 7.6 N 13.0 0.0 0.0
09:55 11.4 10.8 96 1025.4 6.9 NW 13.0 0.0 0.0
10:00 11.5 10.9 96 1025.4 5.4 N 13.0 0.0 0.0
10:01 11.6 11.0 96 1025.4 9.2 N 13.0 0.0 0.0
10:05 11.6 11.0 96 1025.4 9.2 NW 9.8 0.0 0.0
10:06 11.6 11.0 96 1025.4 7.6 N 9.8 0.0 0.0
10:10 11.5 10.9 96 1025.4 7.6 N 9.2 0.0 0.0
10:15 11.6 11.0 96 1025.4 9.2 NW 9.2 0.0 0.0
10:18 11.6 11.0 96 1025.4 6.0 NE 9.2 0.0 0.0
10:21 11.6 11.0 96 1025.4 7.6 NE 11.4 0.0 0.0
10:22 11.6 11.0 96 1025.4 5.4 NE 11.4 0.0 0.0
09:59 11.5 10.9 96 1025.5 9.8 NW 13.0 0.0 0.0
10:02 11.6 11.0 96 1025.5 4.5 NE 12.1 0.0 0.0
10:07 11.6 11.0 96 1025.5 7.6 W 9.8 0.0 0.0
10:11 11.5 10.9 96 1025.5 4.5 N 9.2 0.0 0.0
10:17 11.6 11.0 96 1025.5 6.0 N 9.2 0.0 0.0
10:20 11.6 11.0 96 1025.5 11.4 NE 11.4 0.0 0.0
10:23 11.6 11.0 96 1025.5 8.3 NW 11.4 0.0 0.0
10:27 11.7 11.1 96 1025.5 5.4 NE 11.4 0.0 0.0
10:30 11.7 11.1 96 1025.5 6.0 NE 11.4 0.0 0.0
10:32 11.8 11.2 96 1025.5 9.2 N 9.2 0.0 0.0
10:33 11.9 11.3 96 1025.5 8.3 W 9.2 0.0 0.0
10:35 11.9 11.3 96 1025.5 6.9 N 10.7 0.0 0.0
09:57 11.5 10.9 96 1025.6 5.4 N 13.0 0.0 0.0
10:03 11.6 11.0 96 1025.6 5.4 N 9.8 0.0 0.0
10:04 11.6 11.0 96 1025.6 5.4 NW 9.8 0.0 0.0
10:08 11.5 10.9 96 1025.6 5.4 NE 9.8 0.0 0.0
10:16 11.6 11.0 96 1025.6 9.2 NW 9.2 0.0 0.0
10:19 11.6 11.0 96 1025.6 9.8 NW 9.8 0.0 0.0
10:25 11.7 11.1 96 1025.6 6.9 NE 11.4 0.0 0.0
10:26 11.7 11.1 96 1025.6 9.2 NE 11.4 0.0 0.0
10:29 11.7 11.1 96 1025.6 8.3 NE 11.4 0.0 0.0
10:31 11.8 11.2 96 1025.6 6.9 N 9.2 0.0 0.0
10:43 11.8 11.0 95 1025.6 9.2 NW 10.7 0.0 0.0
10:45 11.8 11.2 96 1025.6 9.2 NW 10.7 0.0 0.0
10:46 11.9 11.3 96 1025.6 6.0 NE 10.7 0.0 0.0
10:47 11.9 11.1 95 1025.6 6.9 NW 9.8 0.0 0.0
10:49 11.9 11.3 96 1025.6 8.3 NE 9.2 0.0 0.0
10:56 12.2 11.4 95 1025.6 8.3 NE 12.1 0.0 0.0
10:58 12.2 11.4 95 1025.6 6.9 N 12.1 0.0 0.0
10:59 12.3 11.5 95 1025.6 6.0 NW 12.1 0.0 0.0
11:01 12.3 11.5 95 1025.6 4.5 NE 12.1 0.0 0.0
11:05 12.3 11.5 95 1025.6 4.5 NE 12.1 0.0 0.0
11:07 12.6 11.8 95 1025.6 7.6 NW 7.6 0.0 0.0
17:10 14.8 13.0 89 1025.6 3.8 NW 6.0 0.0 0.0
17:13 14.8 13.0 89 1025.6 7.6 NW 7.6 0.0 0.0
17:22 14.4 12.6 89 1025.6 3.8 NW 7.6 0.0 0.0
10:28 11.7 11.1 96 1025.7 6.0 NE 11.4 0.0 0.0
10:34 11.9 11.3 96 1025.7 6.9 W 10.7 0.0 0.0
10:37 11.8 11.2 96 1025.7 9.8 N 10.7 0.0 0.0
10:38 11.8 11.0 95 1025.7 7.6 N 10.7 0.0 0.0
10:39 11.8 11.2 96 1025.7 7.6 N 10.7 0.0 0.0
10:41 11.8 11.0 95 1025.7 8.3 NW 10.7 0.0 0.0
10:48 11.9 11.1 95 1025.7 7.6 NW 9.2 0.0 0.0
10:50 11.9 11.3 96 1025.7 9.8 N 9.8 0.0 0.0
10:51 12.0 11.2 95 1025.7 6.0 N 9.8 0.0 0.0
10:52 12.0 11.2 95 1025.7 6.9 N 9.8 0.0 0.0
10:53 12.1 11.3 95 1025.7 9.2 NE 9.8 0.0 0.0
10:54 12.1 11.5 96 1025.7 6.0 NW 9.8 0.0 0.0
10:55 12.1 11.3 95 1025.7 8.3 W 9.8 0.0 0.0
11:00 12.3 11.5 95 1025.7 4.5 NE 12.1 0.0 0.0
11:03 12.3 11.5 95 1025.7 4.5 NE 12.1 0.0 0.0
11:06 12.6 11.8 95 1025.7 6.9 NW 12.1 0.0 0.0
17:08 14.9 13.1 89 1025.7 3.8 NW 6.0 0.0 0.0
17:09 14.8 13.0 89 1025.7 2.2 NW 6.0 0.0 0.0
17:14 14.7 12.9 89 1025.7 6.9 NW 7.6 0.0 0.0
17:25 14.4 12.6 89 1025.7 5.4 NW 6.0 0.0 0.0
17:26 14.4 12.6 89 1025.7 3.1 NW 6.0 0.0 0.0
17:30 14.3 12.5 89 1025.7 3.8 NW 6.0 0.0 0.0
17:31 14.3 12.5 89 1025.7 3.1 NW 6.0 0.0 0.0
17:40 14.2 12.6 90 1025.7 4.5 N 6.0 0.0 0.0
17:42 14.2 12.6 90 1025.7 4.5 NW 6.0 0.0 0.0
17:43 14.2 12.6 90 1025.7 5.4 NW 6.0 0.0 0.0
17:44 14.2 12.6 90 1025.7 4.5 NW 6.0 0.0 0.0
17:46 14.2 12.6 90 1025.7 4.5 NW 6.0 0.0 0.0
17:48 14.2 12.6 90 1025.7 4.5 N 6.0 0.0 0.0
17:49 14.2 12.6 90 1025.7 4.5 NE 6.0 0.0 0.0
17:50 14.2 12.6 90 1025.7 5.4 N 6.0 0.0 0.0
17:54 14.2 12.8 91 1025.7 5.4 N 6.0 0.8 0.1
19:37 13.5 12.4 93 1025.7 2.2 NE 4.5 0.0 0.1
19:41 13.6 12.5 93 1025.7 2.2 NE 4.5 0.0 0.1
10:36 11.8 11.2 96 1025.8 10.7 N 10.7 0.0 0.0
10:44 11.8 11.0 95 1025.8 5.4 NW 10.7 0.0 0.0
10:57 12.2 11.4 95 1025.8 4.5 NW 12.1 0.0 0.0
11:04 12.3 11.5 95 1025.8 4.5 NE 12.1 0.0 0.0
11:09 12.7 11.9 95 1025.8 11.4 NE 11.4 0.0 0.0
11:10 12.7 11.9 95 1025.8 6.9 NW 11.4 0.0 0.0
11:11 12.8 12.0 95 1025.8 4.5 N 11.4 0.0 0.0
11:12 12.8 12.0 95 1025.8 6.9 N 11.4 0.0 0.0
11:13 12.8 11.9 94 1025.8 9.2 NW 11.4 0.0 0.0
11:14 12.8 11.9 94 1025.8 3.8 SE 11.4 0.0 0.0
11:16 12.8 11.9 94 1025.8 4.5 NW 11.4 0.0 0.0
11:18 12.9 12.0 94 1025.8 4.5 NW 11.4 0.0 0.0
11:20 13.0 12.1 94 1025.8 7.6 NE 10.7 0.0 0.0
11:21 13.0 12.1 94 1025.8 6.0 N 10.7 0.0 0.0
11:25 13.0 12.1 94 1025.8 7.6 N 9.8 0.0 0.0
11:26 13.1 12.2 94 1025.8 8.3 NE 9.8 0.0 0.0
11:30 13.2 12.1 93 1025.8 6.0 NE 9.2 0.0 0.0
11:33 13.4 12.3 93 1025.8 9.8 NE 10.7 0.0 0.0
11:34 13.4 12.3 93 1025.8 6.9 N 10.7 0.0 0.0
11:35 13.4 12.3 93 1025.8 8.3 NE 10.7 0.0 0.0
11:36 13.4 12.3 93 1025.8 5.4 NE 10.7 0.0 0.0
11:37 13.4 12.3 93 1025.8 6.9 NW 10.7 0.0 0.0
11:38 13.4 12.3 93 1025.8 6.0 NW 10.7 0.0 0.0
11:39 13.3 12.2 93 1025.8 7.6 NW 10.7 0.0 0.0
11:41 13.3 12.0 92 1025.8 6.0 NW 10.7 0.0 0.0
11:44 13.3 12.0 92 1025.8 5.4 N 8.3 0.0 0.0
11:45 13.3 12.0 92 1025.8 8.3 N 8.3 0.0 0.0
12:29 14.3 12.9 91 1025.8 4.5 NE 9.2 0.0 0.0
13:01 15.1 13.0 87 1025.8 6.9 N 8.3 0.0 0.0
13:24 14.9 12.9 88 1025.8 9.2 NW 9.2 0.0 0.0
15:44 15.5 13.5 88 1025.8 5.4 N 9.2 0.0 0.0
15:54 15.5 13.5 88 1025.8 2.2 NW 8.3 0.0 0.0
16:18 15.4 13.6 89 1025.8 3.8 N 8.3 0.0 0.0
16:19 15.5 13.7 89 1025.8 5.4 NW 6.9 0.0 0.0
16:53 15.2 13.4 89 1025.8 3.1 NW 7.6 0.0 0.0
16:59 15.1 13.3 89 1025.8 3.1 NW 7.6 0.0 0.0
17:00 15.1 13.3 89 1025.8 6.0 NW 7.6 0.0 0.0
17:01 15.0 13.2 89 1025.8 4.5 NW 7.6 0.0 0.0
17:02 15.0 13.2 89 1025.8 5.4 NW 7.6 0.0 0.0
17:03 15.0 13.2 89 1025.8 5.4 NW 7.6 0.0 0.0
17:04 15.0 13.2 89 1025.8 5.4 NW 7.6 0.0 0.0
17:05 14.9 13.1 89 1025.8 3.8 NW 6.0 0.0 0.0
17:06 14.9 13.1 89 1025.8 5.4 NW 6.0 0.0 0.0
17:11 14.8 13.0 89 1025.8 3.1 NW 6.0 0.0 0.0
17:29 14.4 12.6 89 1025.8 3.8 NW 6.0 0.0 0.0
17:32 14.3 12.5 89 1025.8 4.5 NW 6.0 0.0 0.0
17:33 14.3 12.5 89 1025.8 4.5 NW 6.0 0.0 0.0
17:34 14.3 12.5 89 1025.8 6.0 NW 6.0 0.0 0.0
17:35 14.3 12.7 90 1025.8 5.4 N 6.0 0.0 0.0
17:36 14.2 12.6 90 1025.8 6.0 N 6.0 0.0 0.0
17:37 14.3 12.7 90 1025.8 4.5 N 6.0 0.0 0.0
17:39 14.2 12.6 90 1025.8 3.1 N 6.0 0.0 0.0
17:45 14.2 12.6 90 1025.8 4.5 NW 6.0 0.0 0.0
17:47 14.2 12.6 90 1025.8 6.0 N 6.0 0.0 0.0
17:51 14.2 12.8 91 1025.8 2.2 NE 6.0 0.0 0.0
17:55 14.2 12.8 91 1025.8 5.4 N 6.0 0.8 0.1
17:59 14.3 12.9 91 1025.8 2.2 N 5.4 0.0 0.1
18:01 14.2 12.8 91 1025.8 6.9 N 6.9 0.0 0.1
18:02 14.3 12.9 91 1025.8 3.1 NE 6.9 0.0 0.1
18:04 14.2 12.8 91 1025.8 5.4 W 6.9 0.0 0.1
18:11 14.1 12.7 91 1025.8 3.8 NW 6.9 0.0 0.1
19:15 13.5 12.2 92 1025.8 3.1 NE 6.0 0.0 0.1
19:20 13.5 12.4 93 1025.8 3.8 NE 6.0 0.0 0.1
19:22 13.5 12.4 93 1025.8 3.8 NE 6.0 0.0 0.1
19:23 13.5 12.4 93 1025.8 2.2 NE 4.5 0.0 0.1
19:30 13.5 12.4 93 1025.8 1.6 NE 3.8 0.0 0.1
19:34 13.5 12.4 93 1025.8 1.6 NE 3.1 0.0 0.1
19:36 13.5 12.4 93 1025.8 3.8 NE 3.8 0.0 0.1
19:39 13.5 12.4 93 1025.8 2.2 NE 4.5 0.0 0.1
19:40 13.6 12.5 93 1025.8 2.2 NE 4.5 0.0 0.1
19:47 13.6 12.5 93 1025.8 4.5 N 4.5 0.0 0.1
19:48 13.6 12.5 93 1025.8 3.1 N 4.5 0.0 0.1
19:52 13.6 12.5 93 1025.8 3.1 N 4.5 0.0 0.1
20:00 13.6 12.5 93 1025.8 0.7 N 3.8 0.0 0.1
20:01 13.6 12.5 93 1025.8 0.7 N 3.8 0.0 0.1
20:06 13.6 12.7 94 1025.8 1.6 N 1.6 0.0 0.1
11:08 12.7 11.9 95 1025.9 9.8 NE 9.8 0.0 0.0
11:15 12.8 11.9 94 1025.9 6.0 NW 11.4 0.0 0.0
11:17 12.9 12.0 94 1025.9 4.5 N 11.4 0.0 0.0
11:19 13.0 12.1 94 1025.9 8.3 NW 10.7 0.0 0.0
11:24 13.0 12.1 94 1025.9 9.2 NE 9.8 0.0 0.0
11:27 13.2 12.1 93 1025.9 4.5 N 9.8 0.0 0.0
11:28 13.2 12.3 94 1025.9 4.5 N 9.8 0.0 0.0
11:31 13.3 12.2 93 1025.9 5.4 N 9.2 0.0 0.0
11:32 13.3 12.2 93 1025.9 6.9 NE 10.7 0.0 0.0
11:40 13.3 12.0 92 1025.9 6.9 NW 10.7 0.0 0.0
11:43 13.3 12.0 92 1025.9 6.9 NW 9.8 0.0 0.0
11:46 13.3 12.0 92 1025.9 4.5 NW 8.3 0.0 0.0
11:47 13.4 12.3 93 1025.9 7.6 NW 8.3 0.0 0.0
11:49 13.4 12.1 92 1025.9 8.3 N 9.8 0.0 0.0
11:52 13.5 12.4 93 1025.9 4.5 N 9.8 0.0 0.0
11:53 13.5 12.4 93 1025.9 3.8 N 9.8 0.0 0.0
11:54 13.5 12.4 93 1025.9 6.0 N 9.8 0.0 0.0
11:55 13.5 12.4 93 1025.9 4.5 N 9.8 0.0 0.0
11:58 13.5 12.4 93 1025.9 8.3 NW 9.8 0.0 0.0
11:59 13.5 12.2 92 1025.9 6.9 N 8.3 0.0 0.0
12:00 13.5 12.2 92 1025.9 4.5 NW 8.3 0.0 0.0
12:02 13.5 12.2 92 1025.9 7.6 NW 8.3 0.0 0.0
12:06 13.5 12.2 92 1025.9 6.0 NW 8.3 0.0 0.0
12:13 13.6 12.5 93 1025.9 6.0 NE 9.2 0.0 0.0
12:14 13.7 12.6 93 1025.9 10.7 N 10.7 0.0 0.0
12:16 13.9 12.8 93 1025.9 7.6 N 10.7 0.0 0.0
12:22 14.1 12.8 92 1025.9 8.3 N 10.7 0.0 0.0
12:25 14.2 12.9 92 1025.9 9.2 N 9.8 0.0 0.0
12:27 14.2 12.8 91 1025.9 6.9 N 9.8 0.0 0.0
12:34 14.7 13.3 91 1025.9 9.8 N 9.8 0.0 0.0
12:38 14.7 13.1 90 1025.9 4.5 N 9.8 0.0 0.0
12:41 14.9 13.1 89 1025.9 6.9 N 9.8 0.0 0.0
12:43 15.0 13.2 89 1025.9 6.0 N 9.8 0.0 0.0
12:46 15.1 13.3 89 1025.9 4.5 NW 9.2 0.0 0.0
12:53 15.1 13.1 88 1025.9 8.3 NW 8.3 0.0 0.0
12:57 15.1 13.1 88 1025.9 6.9 N 8.3 0.0 0.0
12:58 15.1 13.1 88 1025.9 5.4 N 8.3 0.0 0.0
12:59 15.1 13.1 88 1025.9 7.6 N 8.3 0.0 0.0
13:00 15.1 13.0 87 1025.9 6.9 N 8.3 0.0 0.0
13:04 15.1 13.0 87 1025.9 6.9 N 7.6 0.0 0.0
13:05 15.0 12.9 87 1025.9 6.0 N 7.6 0.0 0.0
13:07 15.0 12.9 87 1025.9 7.6 NW 7.6 0.0 0.0
13:11 15.0 13.0 88 1025.9 5.4 N 7.6 0.0 0.0
13:12 14.9 12.9 88 1025.9 3.8 N 7.6 0.0 0.0
13:14 14.9 12.9 88 1025.9 3.1 N 7.6 0.0 0.0
13:15 14.9 12.9 88 1025.9 3.1 N 7.6 0.0 0.0
13:16 14.9 12.9 88 1025.9 7.6 NW 7.6 0.0 0.0
13:17 14.9 12.9 88 1025.9 6.0 NW 7.6 0.0 0.0
13:18 14.9 12.9 88 1025.9 7.6 NW 7.6 0.0 0.0
13:19 14.9 12.9 88 1025.9 4.5 NW 7.6 0.0 0.0
13:28 14.9 12.9 88 1025.9 5.4 NW 9.2 0.0 0.0
13:31 14.9 12.9 88 1025.9 5.4 N 9.2 0.0 0.0
15:03 15.2 13.4 89 1025.9 3.1 NW 9.8 0.0 0.0
15:05 15.3 13.5 89 1025.9 5.4 NW 9.2 0.0 0.0
15:09 15.4 13.6 89 1025.9 5.4 NW 9.2 0.0 0.0
15:10 15.4 13.6 89 1025.9 3.8 NW 9.2 0.0 0.0
15:14 15.5 13.5 88 1025.9 3.8 N 9.2 0.0 0.0
15:18 15.6 13.6 88 1025.9 4.5 NW 9.8 0.0 0.0
15:19 15.6 13.6 88 1025.9 6.0 N 9.8 0.0 0.0
15:27 15.6 13.6 88 1025.9 6.9 NW 9.8 0.0 0.0
15:33 15.6 13.6 88 1025.9 7.6 N 8.3 0.0 0.0
15:52 15.5 13.5 88 1025.9 8.3 NW 8.3 0.0 0.0
15:55 15.6 13.6 88 1025.9 3.8 N 8.3 0.0 0.0
15:56 15.6 13.6 88 1025.9 3.8 N 8.3 0.0 0.0
16:01 15.5 13.5 88 1025.9 5.4 NE 8.3 0.0 0.0
16:02 15.5 13.5 88 1025.9 4.5 NW 8.3 0.0 0.0
16:04 15.5 13.5 88 1025.9 6.0 NW 8.3 0.0 0.0
16:10 15.5 13.7 89 1025.9 5.4 N 8.3 0.0 0.0
16:23 15.5 13.7 89 1025.9 6.0 NE 6.9 0.0 0.0
16:24 15.5 13.7 89 1025.9 6.0 NW 6.9 0.0 0.0
16:25 15.5 13.7 89 1025.9 5.4 N 6.9 0.0 0.0
16:27 15.5 13.7 89 1025.9 3.1 NW 6.0 0.0 0.0
16:28 15.5 13.7 89 1025.9 4.5 N 6.9 0.0 0.0
16:29 15.5 13.7 89 1025.9 6.9 NE 6.9 0.0 0.0
16:36 15.4 13.6 89 1025.9 4.5 N 8.3 0.0 0.0
16:40 15.4 13.6 89 1025.9 3.8 N 8.3 0.0 0.0
16:41 15.4 13.6 89 1025.9 4.5 NE 8.3 0.0 0.0
16:42 15.3 13.5 89 1025.9 6.0 N 8.3 0.0 0.0
16:43 15.3 13.5 89 1025.9 7.6 N 8.3 0.0 0.0
16:45 15.3 13.5 89 1025.9 3.1 N 8.3 0.0 0.0
16:46 15.3 13.5 89 1025.9 3.1 NE 8.3 0.0 0.0
16:49 15.2 13.4 89 1025.9 6.9 NE 7.6 0.0 0.0
16:50 15.2 13.4 89 1025.9 6.9 NW 7.6 0.0 0.0
16:54 15.2 13.4 89 1025.9 5.4 NW 6.9 0.0 0.0
16:56 15.1 13.3 89 1025.9 3.8 NW 7.6 0.0 0.0
16:57 15.1 13.3 89 1025.9 5.4 NW 7.6 0.0 0.0
16:58 15.1 13.3 89 1025.9 3.8 NW 7.6 0.0 0.0
17:23 14.5 12.7 89 1025.9 6.0 NW 6.9 0.0 0.0
17:24 14.4 12.6 89 1025.9 5.4 NW 6.0 0.0 0.0
17:28 14.4 12.6 89 1025.9 4.5 NW 6.0 0.0 0.0
17:38 14.2 12.6 90 1025.9 4.5 N 6.0 0.0 0.0
17:52 14.2 12.8 91 1025.9 4.5 N 6.0 0.0 0.1
17:57 14.2 12.8 91 1025.9 4.5 N 6.0 0.8 0.1
17:58 14.2 12.8 91 1025.9 4.5 N 5.4 0.0 0.1
18:03 14.2 12.8 91 1025.9 2.2 NE 6.9 0.0 0.1
18:06 14.2 12.8 91 1025.9 3.8 W 6.9 0.0 0.1
18:07 14.2 12.8 91 1025.9 6.0 NW 6.9 0.0 0.1
18:08 14.2 12.8 91 1025.9 3.8 NW 6.9 0.0 0.1
18:09 14.2 12.8 91 1025.9 6.0 NW 6.9 0.0 0.1
18:13 14.1 12.7 91 1025.9 3.1 NW 6.0 0.0 0.1
18:18 14.0 12.6 91 1025.9 3.1 NW 6.0 0.0 0.1
18:24 13.9 12.5 91 1025.9 7.6 NW 7.6 0.0 0.1
18:28 14.0 12.7 92 1025.9 3.8 NW 7.6 0.0 0.1
18:30 14.0 12.7 92 1025.9 5.4 NW 7.6 0.0 0.1
18:31 14.0 12.7 92 1025.9 6.0 N 7.6 0.0 0.1
18:38 13.9 12.6 92 1025.9 3.1 N 6.0 0.0 0.1
18:40 13.8 12.5 92 1025.9 4.5 N 6.0 0.0 0.1
19:16 13.5 12.4 93 1025.9 4.5 NE 6.0 0.0 0.1
19:17 13.5 12.4 93 1025.9 4.5 NE 6.0 0.0 0.1
19:18 13.5 12.4 93 1025.9 3.8 NE 6.0 0.0 0.1
19:19 13.5 12.4 93 1025.9 3.1 NE 6.0 0.0 0.1
19:24 13.5 12.4 93 1025.9 3.1 NE 4.5 0.0 0.1
19:28 13.5 12.4 93 1025.9 1.6 NE 3.8 0.0 0.1
19:31 13.5 12.4 93 1025.9 1.6 NE 3.8 0.0 0.1
19:32 13.5 12.4 93 1025.9 2.2 NE 3.1 0.0 0.1
19:33 13.5 12.4 93 1025.9 2.2 NE 3.1 0.0 0.1
19:35 13.5 12.4 93 1025.9 3.1 NE 3.1 0.0 0.1
19:42 13.5 12.4 93 1025.9 2.2 NE 4.5 0.0 0.1
19:44 13.5 12.4 93 1025.9 2.2 NE 4.5 0.0 0.1
19:45 13.6 12.5 93 1025.9 1.6 NE 4.5 0.0 0.1
19:46 13.6 12.5 93 1025.9 2.2 NE 4.5 0.0 0.1
19:51 13.6 12.5 93 1025.9 2.2 N 4.5 0.0 0.1
19:55 13.6 12.5 93 1025.9 3.1 N 4.5 0.0 0.1
19:58 13.6 12.7 94 1025.9 1.6 N 3.8 0.0 0.1
19:59 13.6 12.7 94 1025.9 1.6 N 3.8 0.0 0.1
20:02 13.6 12.5 93 1025.9 0.7 N 3.8 0.0 0.1
20:03 13.6 12.5 93 1025.9 0.7 N 3.1 0.0 0.1
20:04 13.6 12.5 93 1025.9 0.7 N 3.1 0.0 0.1
20:05 13.7 12.8 94 1025.9 1.6 N 3.1 0.0 0.1
20:07 13.7 12.8 94 1025.9 2.2 N 2.2 0.0 0.1
20:10 13.7 12.8 94 1025.9 3.1 N 4.5 0.0 0.1
20:11 13.6 12.7 94 1025.9 2.2 N 4.5 0.0 0.1
20:14 13.6 12.7 94 1025.9 3.1 N 4.5 0.0 0.1
20:16 13.6 12.7 94 1025.9 2.2 N 4.5 0.0 0.1
20:19 13.6 12.7 94 1025.9 2.2 N 3.8 0.0 0.1
20:21 13.6 12.7 94 1025.9 2.2 N 3.8 0.0 0.1
11:23 13.0 12.1 94 1026.0 5.4 N 9.8 0.0 0.0
11:29 13.2 12.1 93 1026.0 3.8 N 9.8 0.0 0.0
11:48 13.4 12.1 92 1026.0 9.8 NE 9.8 0.0 0.0
11:51 13.5 12.4 93 1026.0 6.9 N 9.8 0.0 0.0
11:57 13.5 12.4 93 1026.0 4.5 N 9.8 0.0 0.0
12:01 13.5 12.2 92 1026.0 4.5 NW 8.3 0.0 0.0
12:03 13.5 12.2 92 1026.0 4.5 NW 8.3 0.0 0.0
12:04 13.5 12.2 92 1026.0 3.1 NW 8.3 0.0 0.0
12:05 13.5 12.2 92 1026.0 6.0 N 8.3 0.0 0.0
12:07 13.5 12.2 92 1026.0 4.5 E 9.2 0.0 0.0
12:08 13.5 12.2 92 1026.0 5.4 N 9.2 0.0 0.0
12:10 13.5 12.2 92 1026.0 4.5 N 9.2 0.0 0.0
12:11 13.5 12.2 92 1026.0 4.5 NE 9.2 0.0 0.0
12:15 13.8 12.7 93 1026.0 6.0 NW 10.7 0.0 0.0
12:17 13.9 12.8 93 1026.0 9.8 NE 10.7 0.0 0.0
12:18 14.0 12.9 93 1026.0 9.2 NE 10.7 0.0 0.0
12:19 14.1 12.8 92 1026.0 8.3 NE 10.7 0.0 0.0
12:21 14.1 12.8 92 1026.0 6.9 N 10.7 0.0 0.0
12:24 14.2 12.9 92 1026.0 9.2 N 10.7 0.0 0.0
12:26 14.2 12.8 91 1026.0 9.2 N 9.8 0.0 0.0
12:28 14.2 12.8 91 1026.0 6.9 NE 9.2 0.0 0.0
12:31 14.5 13.1 91 1026.0 7.6 N 9.2 0.0 0.0
12:33 14.6 13.2 91 1026.0 6.9 NW 9.8 0.0 0.0
12:36 14.7 12.9 89 1026.0 8.3 NE 9.8 0.0 0.0
12:37 14.7 12.9 89 1026.0 4.5 NE 9.8 0.0 0.0
12:40 14.8 13.2 90 1026.0 6.0 NE 9.8 0.0 0.0
12:42 15.0 13.2 89 1026.0 9.2 W 9.8 0.0 0.0
12:44 15.0 13.2 89 1026.0 4.5 N 9.8 0.0 0.0
12:45 15.0 13.2 89 1026.0 3.8 N 9.2 0.0 0.0
12:49 15.1 13.1 88 1026.0 6.0 NW 9.2 0.0 0.0
12:50 15.1 13.1 88 1026.0 6.9 NW 9.2 0.0 0.0
12:51 15.1 13.1 88 1026.0 6.0 NW 9.2 0.0 0.0
12:52 15.1 13.1 88 1026.0 5.4 N 7.6 0.0 0.0
12:54 15.1 13.1 88 1026.0 6.9 SW 8.3 0.0 0.0
12:56 15.1 13.0 87 1026.0 6.0 N 8.3 0.0 0.0
13:02 15.1 13.0 87 1026.0 6.9 N 8.3 0.0 0.0
13:03 15.1 13.0 87 1026.0 6.9 N 8.3 0.0 0.0
13:06 15.0 12.9 87 1026.0 6.0 N 7.6 0.0 0.0
13:08 15.0 13.0 88 1026.0 4.5 N 7.6 0.0 0.0
13:09 15.0 12.9 87 1026.0 6.0 NW 7.6 0.0 0.0
13:20 14.8 12.8 88 1026.0 7.6 NW 7.6 0.0 0.0
13:21 14.9 12.9 88 1026.0 7.6 NW 7.6 0.0 0.0
13:22 14.9 12.9 88 1026.0 6.0 NW 7.6 0.0 0.0
13:25 14.9 12.9 88 1026.0 8.3 NW 9.2 0.0 0.0
13:26 14.9 12.9 88 1026.0 6.0 NW 9.2 0.0 0.0
13:30 14.9 12.9 88 1026.0 6.9 NE 9.2 0.0 0.0
13:32 14.9 12.9 88 1026.0 7.6 NW 9.2 0.0 0.0
13:33 14.9 12.9 88 1026.0 6.0 NW 9.2 0.0 0.0
13:35 14.9 12.9 88 1026.0 9.8 NW 9.8 0.0 0.0
13:36 14.9 12.9 88 1026.0 5.4 WNW 9.8 0.0 0.0
13:37 14.9 12.9 88 1026.0 6.9 NE 9.8 0.0 0.0
13:39 14.9 12.9 88 1026.0 2.2 NE 9.8 0.0 0.0
13:40 14.9 12.9 88 1026.0 3.1 N 9.8 0.0 0.0
13:43 15.0 13.0 88 1026.0 6.0 NW 9.8 0.0 0.0
13:45 15.0 13.0 88 1026.0 4.5 NW 8.3 0.0 0.0
13:47 14.9 12.9 88 1026.0 6.0 NW 8.3 0.0 0.0
13:49 14.9 12.9 88 1026.0 5.4 NW 8.3 0.0 0.0
13:50 14.9 12.9 88 1026.0 5.4 NW 8.3 0.0 0.0
13:56 14.6 12.6 88 1026.0 7.6 NW 9.8 0.0 0.0
13:58 14.5 12.5 88 1026.0 6.9 NW 9.8 0.0 0.0
14:06 14.3 12.3 88 1026.0 6.9 NW 10.7 0.0 0.0
14:47 14.7 12.9 89 1026.0 7.6 NW 7.6 0.0 0.0
14:50 14.7 12.9 89 1026.0 6.0 N 7.6 0.0 0.0
14:51 14.8 13.0 89 1026.0 7.6 NE 7.6 0.0 0.0
14:53 14.8 13.0 89 1026.0 6.9 N 7.6 0.0 0.0
14:58 15.0 13.2 89 1026.0 3.8 NW 9.8 0.0 0.0
15:06 15.4 13.6 89 1026.0 3.8 NW 9.2 0.0 0.0
15:08 15.4 13.6 89 1026.0 8.3 N 9.2 0.0 0.0
15:13 15.5 13.5 88 1026.0 6.0 N 9.2 0.0 0.0
15:15 15.5 13.5 88 1026.0 4.5 NE 9.2 0.0 0.0
15:16 15.5 13.5 88 1026.0 6.0 N 9.2 0.0 0.0
15:17 15.5 13.5 88 1026.0 9.8 NW 9.8 0.0 0.0
15:20 15.6 13.6 88 1026.0 6.0 NW 9.8 0.0 0.0
15:23 15.6 13.6 88 1026.0 3.8 N 9.8 0.0 0.0
15:25 15.6 13.6 88 1026.0 6.0 W 9.8 0.0 0.0
15:31 15.6 13.6 88 1026.0 4.5 E 8.3 0.0 0.0
15:34 15.5 13.5 88 1026.0 6.0 N 8.3 0.0 0.0
15:35 15.5 13.5 88 1026.0 6.0 NW 8.3 0.0 0.0
15:36 15.5 13.5 88 1026.0 5.4 NW 8.3 0.0 0.0
15:41 15.4 13.4 88 1026.0 6.0 NE 9.2 0.0 0.0
15:43 15.5 13.5 88 1026.0 3.8 NE 9.2 0.0 0.0
15:45 15.5 13.5 88 1026.0 6.9 N 9.2 0.0 0.0
15:46 15.5 13.5 88 1026.0 4.5 N 9.2 0.0 0.0
15:47 15.5 13.5 88 1026.0 6.0 NW 9.2 0.0 0.0
15:48 15.5 13.5 88 1026.0 5.4 NW 9.2 0.0 0.0
15:49 15.5 13.5 88 1026.0 6.0 NW 7.6 0.0 0.0
15:50 15.5 13.5 88 1026.0 3.8 NW 6.9 0.0 0.0
15:57 15.6 13.6 88 1026.0 4.5 NW 8.3 0.0 0.0
15:58 15.6 13.6 88 1026.0 8.3 N 8.3 0.0 0.0
15:59 15.6 13.6 88 1026.0 6.0 NW 8.3 0.0 0.0
16:00 15.5 13.5 88 1026.0 5.4 NE 8.3 0.0 0.0
16:03 15.5 13.5 88 1026.0 5.4 NW 8.3 0.0 0.0
16:06 15.5 13.7 89 1026.0 3.8 N 8.3 0.0 0.0
16:07 15.5 13.5 88 1026.0 6.9 N 8.3 0.0 0.0
16:08 15.5 13.5 88 1026.0 3.8 N 8.3 0.0 0.0
16:09 15.5 13.7 89 1026.0 8.3 N 8.3 0.0 0.0
16:12 15.5 13.7 89 1026.0 5.4 NW 8.3 0.0 0.0
16:16 15.5 13.7 89 1026.0 6.9 NW 8.3 0.0 0.0
16:21 15.5 13.7 89 1026.0 2.2 NW 6.9 0.0 0.0
16:22 15.5 13.7 89 1026.0 2.2 NW 6.9 0.0 0.0
16:26 15.5 13.7 89 1026.0 3.8 NW 6.9 0.0 0.0
16:30 15.5 13.7 89 1026.0 8.3 NW 8.3 0.0 0.0
16:31 15.5 13.7 89 1026.0 3.8 N 8.3 0.0 0.0
16:33 15.5 13.7 89 1026.0 6.0 N 8.3 0.0 0.0
16:34 15.4 13.6 89 1026.0 3.8 N 8.3 0.0 0.0
16:37 15.4 13.6 89 1026.0 6.0 N 8.3 0.0 0.0
16:38 15.4 13.6 89 1026.0 8.3 N 8.3 0.0 0.0
16:39 15.4 13.6 89 1026.0 8.3 N 8.3 0.0 0.0
16:44 15.3 13.5 89 1026.0 4.5 N 8.3 0.0 0.0
16:47 15.3 13.5 89 1026.0 1.6 NE 8.3 0.0 0.0
16:48 15.3 13.5 89 1026.0 2.2 NE 8.3 0.0 0.0
17:56 14.3 12.9 91 1026.0 2.2 N 6.0 0.8 0.1
18:00 14.2 12.8 91 1026.0 4.5 NW 5.4 0.0 0.1
18:10 14.2 12.8 91 1026.0 3.1 NW 6.9 0.0 0.1
18:14 14.1 12.7 91 1026.0 4.5 NW 6.0 0.0 0.1
18:16 14.1 12.7 91 1026.0 3.1 NW 6.0 0.0 0.1
18:19 14.0 12.6 91 1026.0 5.4 NW 5.4 0.0 0.1
18:21 14.0 12.6 91 1026.0 5.4 NW 5.4 0.0 0.1
18:23 14.0 12.6 91 1026.0 3.1 NW 5.4 0.0 0.1
18:26 14.0 12.6 91 1026.0 2.2 NW 7.6 0.0 0.1
18:29 13.9 12.6 92 1026.0 5.4 NW 7.6 0.0 0.1
18:33 13.9 12.6 92 1026.0 3.8 NE 7.6 0.0 0.1
18:34 13.9 12.6 92 1026.0 2.2 NE 6.0 0.0 0.1
18:35 13.9 12.6 92 1026.0 4.5 NW 6.0 0.0 0.1
18:37 13.9 12.6 92 1026.0 5.4 N 6.0 0.0 0.1
18:42 13.8 12.5 92 1026.0 3.8 NW 5.4 0.0 0.1
18:45 13.8 12.5 92 1026.0 1.6 N 5.4 0.0 0.1
18:47 13.8 12.5 92 1026.0 4.5 NW 5.4 0.0 0.1
18:48 13.8 12.5 92 1026.0 3.1 NW 4.5 0.0 0.1
18:51 13.8 12.5 92 1026.0 3.1 N 5.4 0.0 0.1
18:52 13.7 12.4 92 1026.0 3.8 N 5.4 0.0 0.1
19:02 13.7 12.4 92 1026.0 5.4 NW 5.4 0.0 0.1
19:03 13.7 12.4 92 1026.0 5.4 NW 5.4 0.0 0.1
19:25 13.5 12.4 93 1026.0 3.1 NE 4.5 0.0 0.1
19:26 13.5 12.4 93 1026.0 2.2 NE 4.5 0.0 0.1
19:49 13.6 12.5 93 1026.0 2.2 N 4.5 0.0 0.1
19:53 13.6 12.5 93 1026.0 3.1 N 4.5 0.0 0.1
19:54 13.6 12.5 93 1026.0 3.1 N 4.5 0.0 0.1
19:56 13.6 12.5 93 1026.0 1.6 N 4.5 0.0 0.1
20:09 13.7 12.8 94 1026.0 1.6 N 4.5 0.0 0.1
20:13 13.7 12.8 94 1026.0 2.2 N 4.5 0.0 0.1
20:17 13.6 12.7 94 1026.0 1.6 N 4.5 0.0 0.1
20:22 13.6 12.7 94 1026.0 2.2 N 3.8 0.0 0.1
20:24 13.6 12.7 94 1026.0 3.8 N 5.4 0.0 0.1
20:25 13.6 12.7 94 1026.0 2.2 N 5.4 0.0 0.1
20:26 13.6 12.7 94 1026.0 2.2 N 5.4 0.0 0.1
20:27 13.6 12.7 94 1026.0 1.6 N 5.4 0.0 0.1
20:29 13.6 12.7 94 1026.0 3.1 N 5.4 0.0 0.1
20:30 13.6 12.7 94 1026.0 2.2 N 5.4 0.0 0.1
20:37 13.6 12.7 94 1026.0 3.8 NE 3.8 0.0 0.1
20:38 13.6 12.7 94 1026.0 2.2 NE 3.8 0.0 0.1
20:39 13.6 12.7 94 1026.0 3.8 N 3.8 0.0 0.1
20:42 13.5 12.6 94 1026.0 3.8 N 4.5 0.0 0.1
20:45 13.5 12.6 94 1026.0 2.2 N 4.5 0.0 0.1
20:50 13.4 12.5 94 1026.0 2.2 NE 4.5 0.0 0.1
11:50 13.4 12.1 92 1026.1 5.4 NW 9.8 0.0 0.0
12:20 14.1 12.8 92 1026.1 8.3 N 10.7 0.0 0.0
12:30 14.3 12.9 91 1026.1 5.4 NE 9.2 0.0 0.0
12:32 14.6 13.2 91 1026.1 7.6 N 9.8 0.0 0.0
12:35 14.7 13.1 90 1026.1 5.4 NE 9.8 0.0 0.0
12:47 15.1 13.1 88 1026.1 6.9 NE 9.2 0.0 0.0
12:48 15.1 13.1 88 1026.1 3.1 NW 9.2 0.0 0.0
13:13 14.9 12.9 88 1026.1 4.5 NW 7.6 0.0 0.0
13:23 14.9 12.9 88 1026.1 5.4 NW 7.6 0.0 0.0
13:27 14.9 12.9 88 1026.1 4.5 NW 9.2 0.0 0.0
13:34 14.9 12.9 88 1026.1 6.9 NW 9.2 0.0 0.0
13:38 14.9 12.9 88 1026.1 3.1 NE 9.8 0.0 0.0
13:41 14.9 12.9 88 1026.1 5.4 NW 9.8 0.0 0.0
13:42 15.0 13.0 88 1026.1 3.8 NW 9.8 0.0 0.0
13:44 14.9 12.9 88 1026.1 5.4 NW 9.8 0.0 0.0
13:46 15.0 13.0 88 1026.1 7.6 N 8.3 0.0 0.0
13:51 14.9 12.9 88 1026.1 6.0 N 9.2 0.0 0.0
13:54 14.7 12.7 88 1026.1 8.3 NW 9.8 0.0 0.0
14:02 14.4 12.4 88 1026.1 6.9 NW 9.8 0.0 0.0
14:03 14.4 12.4 88 1026.1 7.6 NW 9.8 0.0 0.0
14:04 14.4 12.4 88 1026.1 7.6 NW 10.7 0.0 0.0
14:05 14.3 12.3 88 1026.1 6.9 NW 10.7 0.0 0.0
14:08 14.4 12.4 88 1026.1 5.4 NW 10.7 0.0 0.0
14:09 14.4 12.4 88 1026.1 8.3 NW 10.7 0.0 0.0
14:10 14.4 12.4 88 1026.1 4.5 NW 10.7 0.0 0.0
14:13 14.5 12.7 89 1026.1 6.9 NW 10.7 0.0 0.0
14:15 14.5 12.7 89 1026.1 5.4 NW 9.2 0.0 0.0
14:27 14.6 12.8 89 1026.1 6.0 N 7.6 0.0 0.0
14:30 14.6 12.8 89 1026.1 6.0 N 6.9 0.0 0.0
14:31 14.6 12.8 89 1026.1 4.5 NW 6.9 0.0 0.0
14:35 14.7 12.9 89 1026.1 3.1 N 7.6 0.0 0.0
14:42 14.7 12.9 89 1026.1 6.0 NE 7.6 0.0 0.0
14:43 14.7 12.9 89 1026.1 6.9 N 7.6 0.0 0.0
14:45 14.7 12.9 89 1026.1 6.0 N 7.6 0.0 0.0
14:48 14.7 12.9 89 1026.1 6.0 NW 7.6 0.0 0.0
14:49 14.7 12.9 89 1026.1 5.4 N 7.6 0.0 0.0
14:54 14.8 13.0 89 1026.1 6.9 N 9.8 0.0 0.0
14:55 14.8 13.0 89 1026.1 6.0 N 9.8 0.0 0.0
14:56 14.9 13.1 89 1026.1 6.0 NW 9.8 0.0 0.0
14:57 15.0 13.2 89 1026.1 4.5 NW 9.8 0.0 0.0
14:59 15.1 13.3 89 1026.1 9.2 NW 9.8 0.0 0.0
15:04 15.3 13.5 89 1026.1 5.4 NW 9.2 0.0 0.0
15:11 15.5 13.7 89 1026.1 4.5 N 9.2 0.0 0.0
15:12 15.5 13.5 88 1026.1 4.5 NW 9.2 0.0 0.0
15:21 15.6 13.6 88 1026.1 5.4 N 9.8 0.0 0.0
15:22 15.6 13.6 88 1026.1 6.0 N 9.8 0.0 0.0
15:24 15.6 13.6 88 1026.1 3.1 N 9.8 0.0 0.0
15:28 15.6 13.6 88 1026.1 2.2 NW 8.3 0.0 0.0
15:29 15.6 13.6 88 1026.1 6.0 NW 8.3 0.0 0.0
15:30 15.6 13.6 88 1026.1 8.3 N 8.3 0.0 0.0
15:32 15.6 13.6 88 1026.1 6.9 N 8.3 0.0 0.0
15:38 15.5 13.5 88 1026.1 9.2 N 9.2 0.0 0.0
15:40 15.5 13.5 88 1026.1 6.0 NW 9.2 0.0 0.0
15:42 15.5 13.5 88 1026.1 6.0 NE 9.2 0.0 0.0
15:53 15.5 13.5 88 1026.1 3.8 NW 8.3 0.0 0.0
16:15 15.5 13.7 89 1026.1 4.5 N 8.3 0.0 0.0
16:17 15.5 13.7 89 1026.1 5.4 N 8.3 0.0 0.0
16:32 15.5 13.7 89 1026.1 7.6 NW 8.3 0.0 0.0
16:51 15.2 13.4 89 1026.1 2.2 NW 7.6 0.0 0.0
18:22 14.0 12.6 91 1026.1 3.1 NW 5.4 0.0 0.1
18:25 14.0 12.6 91 1026.1 3.8 NW 7.6 0.0 0.1
18:39 13.9 12.6 92 1026.1 2.2 N 6.0 0.0 0.1
18:43 13.8 12.5 92 1026.1 3.8 NW 5.4 0.0 0.1
18:46 13.8 12.5 92 1026.1 4.5 NW 5.4 0.0 0.1
18:49 13.8 12.5 92 1026.1 4.5 NW 4.5 0.0 0.1
18:53 13.7 12.4 92 1026.1 3.8 N 5.4 0.8 0.1
18:54 13.7 12.4 92 1026.1 3.1 N 5.4 0.8 0.1
18:56 13.7 12.4 92 1026.1 4.5 N 5.4 0.8 0.1
18:57 13.7 12.4 92 1026.1 3.8 N 5.4 0.8 0.1
18:58 13.7 12.4 92 1026.1 3.8 NE 5.4 0.0 0.1
18:59 13.7 12.4 92 1026.1 5.4 NE 5.4 0.0 0.1
19:00 13.7 12.4 92 1026.1 5.4 NW 5.4 0.0 0.1
19:01 13.7 12.4 92 1026.1 5.4 NW 5.4 0.0 0.1
19:04 13.7 12.4 92 1026.1 5.4 NW 5.4 0.0 0.1
19:06 13.6 12.3 92 1026.1 6.0 NE 6.0 0.0 0.1
19:07 13.6 12.3 92 1026.1 4.5 NE 6.0 0.0 0.1
19:08 13.6 12.3 92 1026.1 6.0 NE 6.0 0.0 0.1
19:09 13.6 12.3 92 1026.1 4.5 NE 6.0 0.0 0.1
19:10 13.5 12.2 92 1026.1 3.8 NE 6.0 0.0 0.1
19:11 13.5 12.2 92 1026.1 3.8 NE 6.0 0.0 0.1
19:13 13.5 12.4 93 1026.1 4.5 NE 6.0 0.0 0.1
19:14 13.5 12.2 92 1026.1 4.5 N 6.0 0.0 0.1
19:27 13.5 12.4 93 1026.1 1.6 NE 4.5 0.0 0.1
20:20 13.6 12.7 94 1026.1 2.2 N 3.8 0.0 0.1
20:31 13.6 12.7 94 1026.1 2.2 N 5.4 0.0 0.1
20:32 13.6 12.7 94 1026.1 2.2 N 5.4 0.0 0.1
20:35 13.6 12.7 94 1026.1 3.8 NE 3.8 0.0 0.1
20:40 13.6 12.7 94 1026.1 4.5 NE 4.5 0.0 0.1
20:41 13.6 12.7 94 1026.1 3.8 NE 4.5 0.0 0.1
20:43 13.5 12.6 94 1026.1 3.1 N 4.5 0.0 0.1
20:47 13.5 12.6 94 1026.1 3.1 NE 4.5 0.0 0.1
20:48 13.5 12.6 94 1026.1 2.2 NE 4.5 0.0 0.1
21:10 13.3 12.4 94 1026.1 2.2 NE 2.2 0.0 0.1
21:13 13.3 12.4 94 1026.1 2.2 NE 3.1 0.0 0.1
21:16 13.3 12.4 94 1026.1 2.2 NE 3.1 0.0 0.1
13:52 14.8 12.8 88 1026.2 7.6 NW 9.2 0.0 0.0
13:53 14.8 12.8 88 1026.2 9.8 NW 9.8 0.0 0.0
13:55 14.7 12.7 88 1026.2 6.9 NW 9.8 0.0 0.0
13:57 14.6 12.6 88 1026.2 6.0 NW 9.8 0.0 0.0
13:59 14.5 12.5 88 1026.2 6.9 N 9.8 0.0 0.0
14:00 14.5 12.5 88 1026.2 6.9 NW 9.8 0.0 0.0
14:01 14.4 12.4 88 1026.2 7.6 NW 9.8 0.0 0.0
14:12 14.4 12.6 89 1026.2 9.2 NW 10.7 0.0 0.0
14:16 14.5 12.7 89 1026.2 6.9 NW 9.2 0.0 0.0
14:17 14.5 12.7 89 1026.2 6.0 NW 9.2 0.0 0.0
14:18 14.5 12.7 89 1026.2 6.9 NW 9.2 0.0 0.0
14:19 14.5 12.7 89 1026.2 3.8 NW 9.2 0.0 0.0
14:20 14.5 12.7 89 1026.2 6.0 NW 9.2 0.0 0.0
14:23 14.6 12.8 89 1026.2 5.4 NW 8.3 0.0 0.0
14:24 14.6 12.8 89 1026.2 5.4 N 8.3 0.0 0.0
14:26 14.6 12.8 89 1026.2 6.9 N 8.3 0.0 0.0
14:32 14.6 12.8 89 1026.2 3.8 N 6.9 0.0 0.0
14:33 14.6 12.8 89 1026.2 2.2 N 6.9 0.0 0.0
14:34 14.7 12.9 89 1026.2 5.4 N 7.6 0.0 0.0
14:37 14.7 12.9 89 1026.2 5.4 N 7.6 0.0 0.0
14:38 14.7 12.9 89 1026.2 4.5 N 7.6 0.0 0.0
14:39 14.7 12.9 89 1026.2 5.4 N 7.6 0.0 0.0
14:40 14.7 12.9 89 1026.2 4.5 NW 7.6 0.0 0.0
14:44 14.7 12.9 89 1026.2 7.6 N 7.6 0.0 0.0
14:52 14.8 13.0 89 1026.2 7.6 N 7.6 0.0 0.0
15:00 15.1 13.3 89 1026.2 9.2 NW 9.8 0.0 0.0
15:02 15.2 13.4 89 1026.2 3.8 NW 9.8 0.0 0.0
15:37 15.5 13.5 88 1026.2 5.4 NW 8.3 0.0 0.0
16:13 15.5 13.7 89 1026.2 6.0 NW 8.3 0.0 0.0
18:41 13.8 12.5 92 1026.2 2.2 N 6.0 0.0 0.1
18:50 13.8 12.5 92 1026.2 3.1 N 5.4 0.0 0.1
20:33 13.6 12.7 94 1026.2 1.6 N 5.4 0.0 0.1
20:34 13.6 12.7 94 1026.2 2.2 N 3.1 0.0 0.1
20:46 13.5 12.6 94 1026.2 3.8 N 4.5 0.0 0.1
20:49 13.5 12.6 94 1026.2 2.2 NE 4.5 0.0 0.1
20:51 13.4 12.5 94 1026.2 3.1 NE 3.8 0.0 0.1
20:52 13.4 12.5 94 1026.2 3.1 NE 3.8 0.0 0.1
20:53 13.4 12.5 94 1026.2 3.8 NE 3.8 0.0 0.1
20:55 13.4 12.5 94 1026.2 2.2 NE 3.8 0.0 0.1
20:56 13.5 12.6 94 1026.2 2.2 NE 3.8 0.0 0.1
20:57 13.4 12.5 94 1026.2 1.6 NE 3.8 0.0 0.1
20:58 13.4 12.5 94 1026.2 3.1 NE 3.8 0.0 0.1
21:04 13.3 12.4 94 1026.2 1.6 NE 3.1 0.0 0.1
21:06 13.3 12.4 94 1026.2 1.6 NE 3.1 0.0 0.1
21:08 13.3 12.4 94 1026.2 1.6 NE 3.1 0.0 0.1
21:11 13.3 12.4 94 1026.2 1.6 NE 3.1 0.0 0.1
21:14 13.3 12.4 94 1026.2 1.6 NE 3.1 0.0 0.1
21:18 13.2 12.3 94 1026.2 1.6 NE 3.1 0.0 0.1
14:21 14.6 12.8 89 1026.3 5.4 N 9.2 0.0 0.0
14:22 14.6 12.8 89 1026.3 6.0 N 8.3 0.0 0.0
14:25 14.6 12.8 89 1026.3 4.5 NW 8.3 0.0 0.0
14:28 14.6 12.8 89 1026.3 3.8 N 7.6 0.0 0.0
14:36 14.7 12.9 89 1026.3 4.5 N 7.6 0.0 0.0
14:41 14.7 12.9 89 1026.3 6.9 NE 7.6 0.0 0.0
20:59 13.4 12.5 94 1026.3 1.6 NE 3.8 0.0 0.1
21:01 13.4 12.5 94 1026.3 2.2 NE 3.8 0.0 0.1
21:02 13.4 12.5 94 1026.3 2.2 NE 3.8 0.0 0.1
21:21 13.2 12.3 94 1026.3 0.7 NE 2.2 0.0 0.1
21:25 13.2 12.3 94 1026.3 0.7 NE 2.2 0.0 0.1
21:27 13.2 12.3 94 1026.3 0.7 NE 2.2 0.0 0.1
21:28 13.2 12.3 94 1026.3 2.2 NE 2.2 0.0 0.1
21:42 13.2 12.3 94 1026.3 2.2 NE 3.1 0.0 0.1
21:19 13.2 12.3 94 1026.4 0.7 NE 3.1 0.0 0.1
21:32 13.2 12.3 94 1026.4 1.6 NE 2.2 0.0 0.1
21:38 13.2 12.3 94 1026.4 3.1 NE 3.1 0.0 0.1
21:40 13.2 12.3 94 1026.4 2.2 NE 3.1 0.0 0.1
21:44 13.2 12.3 94 1026.4 0.7 NE 3.1 0.0 0.1
21:50 13.1 12.2 94 1026.4 1.6 NE 2.2 0.0 0.1
21:59 13.1 12.2 94 1026.4 0.7 NE 1.6 0.0 0.1
22:01 13.1 12.2 94 1026.4 2.2 NE 2.2 0.0 0.1
22:08 13.1 12.2 94 1026.4 1.6 NE 2.2 0.0 0.1
22:11 13.1 12.2 94 1026.4 0.7 NE 2.2 0.0 0.1
22:16 13.1 12.2 94 1026.4 1.6 NE 1.6 0.0 0.1
23:08 12.7 11.8 94 1026.4 1.6 NE 2.2 0.0 0.1
21:23 13.2 12.3 94 1026.5 2.2 NE 2.2 0.0 0.1
21:34 13.2 12.3 94 1026.5 1.6 NE 2.2 0.0 0.1
21:36 13.2 12.3 94 1026.5 3.1 NE 3.1 0.0 0.1
21:48 13.2 12.3 94 1026.5 1.6 NE 2.2 0.0 0.1
21:52 13.2 12.3 94 1026.5 1.6 NE 2.2 0.0 0.1
21:55 13.1 12.2 94 1026.5 1.6 NE 1.6 0.0 0.1
22:03 13.1 12.2 94 1026.5 2.2 NE 2.2 0.0 0.1
22:05 13.1 12.2 94 1026.5 1.6 NE 2.2 0.0 0.1
22:13 13.1 12.2 94 1026.5 0.7 NE 2.2 0.0 0.1
22:21 13.0 12.1 94 1026.5 1.6 NE 1.6 0.0 0.1
22:40 12.9 12.0 94 1026.5 1.6 NE 2.2 0.0 0.1
22:42 12.9 12.1 95 1026.5 1.6 NE 2.2 0.0 0.1
22:53 12.8 12.0 95 1026.5 2.2 NE 3.1 0.0 0.1
23:03 12.7 11.8 94 1026.5 1.6 NE 2.2 0.0 0.1
23:21 12.5 11.6 94 1026.5 0.7 NE 1.6 0.0 0.1
21:57 13.1 12.2 94 1026.6 1.6 NE 1.6 0.0 0.1
22:25 13.0 12.1 94 1026.6 1.6 NE 2.2 0.0 0.1
22:36 12.9 12.1 95 1026.6 1.6 NE 3.1 0.0 0.1
22:45 12.9 12.0 94 1026.6 2.2 NE 3.1 0.0 0.1
22:48 12.9 12.1 95 1026.6 3.1 NE 3.1 0.0 0.1
22:50 12.8 11.9 94 1026.6 2.2 NE 3.1 0.0 0.1
22:52 12.8 11.9 94 1026.6 2.2 NE 3.1 0.0 0.1
22:56 12.7 11.8 94 1026.6 1.6 NE 3.1 0.0 0.1
22:57 12.7 11.8 94 1026.6 1.6 NE 3.1 0.0 0.1
22:58 12.7 11.8 94 1026.6 2.2 NE 2.2 0.0 0.1
23:12 12.5 11.6 94 1026.6 1.6 NE 3.1 0.0 0.1
23:14 12.5 11.6 94 1026.6 1.6 NE 3.1 0.0 0.1
23:20 12.5 11.6 94 1026.6 1.6 NE 2.2 0.0 0.1
23:27 12.4 11.5 94 1026.6 2.2 NE 2.2 0.0 0.1
23:29 12.4 11.5 94 1026.6 0.7 NE 2.2 0.0 0.1
23:32 12.4 11.5 94 1026.6 2.2 NE 2.2 0.0 0.1
22:28 13.0 12.1 94 1026.7 3.1 NE 3.1 0.0 0.1
22:32 12.9 12.0 94 1026.7 2.2 NE 3.1 0.0 0.1
22:55 12.7 11.8 94 1026.7 2.2 NE 3.1 0.0 0.1
23:18 12.5 11.6 94 1026.7 0.7 NE 3.1 0.0 0.1
23:23 12.5 11.6 94 1026.7 1.6 NE 1.6 0.0 0.1
23:25 12.4 11.5 94 1026.7 0.7 NE 1.6 0.0 0.1
23:31 12.4 11.5 94 1026.7 1.6 NE 2.2 0.0 0.1
23:34 12.4 11.5 94 1026.7 1.6 NE 2.2 0.0 0.1
23:36 12.3 11.4 94 1026.7 1.6 NE 2.2 0.0 0.1
23:38 12.3 11.4 94 1026.7 1.6 NE 2.2 0.0 0.1
23:40 12.3 11.4 94 1026.7 1.6 NE 2.2 0.0 0.1
23:49 12.3 11.4 94 1026.7 0.7 NE 2.2 0.0 0.1
23:17 12.5 11.6 94 1026.8 1.6 NE 3.1 0.0 0.1
23:41 12.3 11.4 94 1026.8 1.6 NE 2.2 0.0 0.1
23:43 12.3 11.4 94 1026.8 2.2 NE 2.2 0.0 0.1
23:44 12.3 11.4 94 1026.8 1.6 NE 2.2 0.0 0.1
23:45 12.3 11.4 94 1026.8 0.7 NE 2.2 0.0 0.1
23:47 12.3 11.4 94 1026.8 0.7 NE 2.2 0.0 0.1
23:48 12.2 11.3 94 1026.8 0.7 NE 2.2 0.0 0.1
23:50 12.2 11.3 94 1026.8 0.7 NE 2.2 0.0 0.1
23:51 12.2 11.3 94 1026.9 0.7 NE 2.2 0.0 0.1
23:53 12.2 11.3 94 1026.9 0.7 NE 1.6 0.0 0.1
23:55 12.2 11.4 95 1026.9 0.7 NE 1.6 0.0 0.1
23:58 12.2 11.3 94 1026.9 0.7 NE 1.6 0.0 0.1

UK - WEATHER STATION TOPSITES - UK World Weather Websites

This is a private weather station, never base important decisions or events on data from this weather station. Although every effort has been made to make the data as accurate as possible it does not meet MetOffice standards. It is proved as a guide of local weather conditions. We accept no liability for any loss which may arise from use of the data.

Copyright © Carnkie Weather 2009 - 2018.